<?xml version="1.0" encoding="UTF-8" standalone="no" ?>
<gpx xmlns="http://www.topografix.com/GPX/1/1" xmlns:xsi="http://www.w3.org/2001/XMLSchema-instance" xsi:schemaLocation="http://www.topografix.com/GPX/1/1 http://www.topografix.com/GPX/1/1/gpx.xsd" version="1.1" creator="VisuGPX - https://www.visugpx.com">
  <metadata>
    <name>Randonnée du 24/04/2025 à 14:09</name>
  </metadata>
  <trk>
    <name><![CDATA[Randonnée du 24/04/2025 à 14:09]]></name>
    <extensions>
      <line xmlns="http://www.topografix.com/GPX/gpx_style/0/2">
        <color>0000FF</color>
        <width>4</width>
      </line>
    </extensions>
    <trkseg>
      <trkpt lat="44.27094" lon="0.52506">
        <ele>169.3</ele>
        <time>2025-04-24T12:09:27.000Z</time>
      </trkpt>
      <trkpt lat="44.27096" lon="0.52505">
        <ele>219</ele>
        <time>2025-04-24T12:09:29.000Z</time>
      </trkpt>
      <trkpt lat="44.27091" lon="0.52515">
        <ele>169.1</ele>
        <time>2025-04-24T12:10:09.000Z</time>
      </trkpt>
      <trkpt lat="44.27096" lon="0.52527">
        <ele>218</ele>
        <time>2025-04-24T12:10:39.000Z</time>
      </trkpt>
      <trkpt lat="44.27099" lon="0.5254">
        <ele>217</ele>
        <time>2025-04-24T12:10:49.000Z</time>
      </trkpt>
      <trkpt lat="44.27103" lon="0.52552">
        <ele>217</ele>
        <time>2025-04-24T12:10:57.000Z</time>
      </trkpt>
      <trkpt lat="44.27107" lon="0.52563">
        <ele>217</ele>
        <time>2025-04-24T12:11:05.000Z</time>
      </trkpt>
      <trkpt lat="44.27111" lon="0.52574">
        <ele>217</ele>
        <time>2025-04-24T12:11:15.000Z</time>
      </trkpt>
      <trkpt lat="44.27117" lon="0.52586">
        <ele>217</ele>
        <time>2025-04-24T12:11:27.000Z</time>
      </trkpt>
      <trkpt lat="44.27119" lon="0.52599">
        <ele>217</ele>
        <time>2025-04-24T12:11:35.000Z</time>
      </trkpt>
      <trkpt lat="44.27124" lon="0.52609">
        <ele>217</ele>
        <time>2025-04-24T12:11:47.000Z</time>
      </trkpt>
      <trkpt lat="44.27131" lon="0.5262">
        <ele>217</ele>
        <time>2025-04-24T12:11:53.000Z</time>
      </trkpt>
      <trkpt lat="44.27139" lon="0.5263">
        <ele>217</ele>
        <time>2025-04-24T12:12:01.000Z</time>
      </trkpt>
      <trkpt lat="44.27145" lon="0.5264">
        <ele>217</ele>
        <time>2025-04-24T12:12:09.000Z</time>
      </trkpt>
      <trkpt lat="44.27151" lon="0.52649">
        <ele>217</ele>
        <time>2025-04-24T12:12:17.000Z</time>
      </trkpt>
      <trkpt lat="44.27159" lon="0.52659">
        <ele>217</ele>
        <time>2025-04-24T12:12:27.000Z</time>
      </trkpt>
      <trkpt lat="44.27166" lon="0.52669">
        <ele>217</ele>
        <time>2025-04-24T12:12:47.000Z</time>
      </trkpt>
      <trkpt lat="44.27174" lon="0.52676">
        <ele>217</ele>
        <time>2025-04-24T12:12:53.000Z</time>
      </trkpt>
      <trkpt lat="44.27183" lon="0.52683">
        <ele>217</ele>
        <time>2025-04-24T12:13:01.000Z</time>
      </trkpt>
      <trkpt lat="44.27193" lon="0.52691">
        <ele>217</ele>
        <time>2025-04-24T12:13:09.000Z</time>
      </trkpt>
      <trkpt lat="44.27202" lon="0.527">
        <ele>217</ele>
        <time>2025-04-24T12:13:17.000Z</time>
      </trkpt>
      <trkpt lat="44.27211" lon="0.52708">
        <ele>217</ele>
        <time>2025-04-24T12:13:25.000Z</time>
      </trkpt>
      <trkpt lat="44.2722" lon="0.52714">
        <ele>217</ele>
        <time>2025-04-24T12:13:33.000Z</time>
      </trkpt>
      <trkpt lat="44.27229" lon="0.52721">
        <ele>217</ele>
        <time>2025-04-24T12:13:39.000Z</time>
      </trkpt>
      <trkpt lat="44.27238" lon="0.52726">
        <ele>217</ele>
        <time>2025-04-24T12:13:47.000Z</time>
      </trkpt>
      <trkpt lat="44.27248" lon="0.52731">
        <ele>217</ele>
        <time>2025-04-24T12:13:55.000Z</time>
      </trkpt>
      <trkpt lat="44.27258" lon="0.52738">
        <ele>217</ele>
        <time>2025-04-24T12:14:05.000Z</time>
      </trkpt>
      <trkpt lat="44.27267" lon="0.52746">
        <ele>217</ele>
        <time>2025-04-24T12:14:13.000Z</time>
      </trkpt>
      <trkpt lat="44.27276" lon="0.52755">
        <ele>217</ele>
        <time>2025-04-24T12:14:21.000Z</time>
      </trkpt>
      <trkpt lat="44.27285" lon="0.52764">
        <ele>217</ele>
        <time>2025-04-24T12:14:29.000Z</time>
      </trkpt>
      <trkpt lat="44.27291" lon="0.52773">
        <ele>174.9</ele>
        <time>2025-04-24T12:14:37.000Z</time>
      </trkpt>
      <trkpt lat="44.273" lon="0.52761">
        <ele>217</ele>
        <time>2025-04-24T12:14:45.000Z</time>
      </trkpt>
      <trkpt lat="44.27307" lon="0.5275">
        <ele>217</ele>
        <time>2025-04-24T12:14:55.000Z</time>
      </trkpt>
      <trkpt lat="44.27313" lon="0.5274">
        <ele>217</ele>
        <time>2025-04-24T12:15:03.000Z</time>
      </trkpt>
      <trkpt lat="44.27319" lon="0.52731">
        <ele>218</ele>
        <time>2025-04-24T12:15:11.000Z</time>
      </trkpt>
      <trkpt lat="44.27326" lon="0.5272">
        <ele>218</ele>
        <time>2025-04-24T12:15:19.000Z</time>
      </trkpt>
      <trkpt lat="44.27333" lon="0.52711">
        <ele>218</ele>
        <time>2025-04-24T12:15:27.000Z</time>
      </trkpt>
      <trkpt lat="44.27342" lon="0.52703">
        <ele>218</ele>
        <time>2025-04-24T12:15:35.000Z</time>
      </trkpt>
      <trkpt lat="44.2735" lon="0.52696">
        <ele>218</ele>
        <time>2025-04-24T12:15:43.000Z</time>
      </trkpt>
      <trkpt lat="44.27356" lon="0.52685">
        <ele>218</ele>
        <time>2025-04-24T12:15:51.000Z</time>
      </trkpt>
      <trkpt lat="44.2736" lon="0.52671">
        <ele>218</ele>
        <time>2025-04-24T12:16:01.000Z</time>
      </trkpt>
      <trkpt lat="44.27368" lon="0.52661">
        <ele>219</ele>
        <time>2025-04-24T12:16:09.000Z</time>
      </trkpt>
      <trkpt lat="44.27374" lon="0.52649">
        <ele>220</ele>
        <time>2025-04-24T12:16:17.000Z</time>
      </trkpt>
      <trkpt lat="44.27382" lon="0.52642">
        <ele>221</ele>
        <time>2025-04-24T12:16:25.000Z</time>
      </trkpt>
      <trkpt lat="44.27389" lon="0.52635">
        <ele>222</ele>
        <time>2025-04-24T12:16:33.000Z</time>
      </trkpt>
      <trkpt lat="44.27397" lon="0.52627">
        <ele>222</ele>
        <time>2025-04-24T12:16:41.000Z</time>
      </trkpt>
      <trkpt lat="44.27406" lon="0.5262">
        <ele>222</ele>
        <time>2025-04-24T12:16:49.000Z</time>
      </trkpt>
      <trkpt lat="44.27414" lon="0.52612">
        <ele>222</ele>
        <time>2025-04-24T12:16:57.000Z</time>
      </trkpt>
      <trkpt lat="44.27421" lon="0.52604">
        <ele>222</ele>
        <time>2025-04-24T12:17:05.000Z</time>
      </trkpt>
      <trkpt lat="44.27429" lon="0.52596">
        <ele>222</ele>
        <time>2025-04-24T12:17:13.000Z</time>
      </trkpt>
      <trkpt lat="44.27438" lon="0.52589">
        <ele>222</ele>
        <time>2025-04-24T12:17:21.000Z</time>
      </trkpt>
      <trkpt lat="44.27447" lon="0.52582">
        <ele>221</ele>
        <time>2025-04-24T12:17:31.000Z</time>
      </trkpt>
      <trkpt lat="44.27454" lon="0.52575">
        <ele>221</ele>
        <time>2025-04-24T12:17:37.000Z</time>
      </trkpt>
      <trkpt lat="44.27462" lon="0.52568">
        <ele>217</ele>
        <time>2025-04-24T12:17:45.000Z</time>
      </trkpt>
      <trkpt lat="44.2747" lon="0.52562">
        <ele>211</ele>
        <time>2025-04-24T12:17:53.000Z</time>
      </trkpt>
      <trkpt lat="44.27479" lon="0.52554">
        <ele>201</ele>
        <time>2025-04-24T12:18:01.000Z</time>
      </trkpt>
      <trkpt lat="44.27487" lon="0.52548">
        <ele>189</ele>
        <time>2025-04-24T12:18:09.000Z</time>
      </trkpt>
      <trkpt lat="44.27496" lon="0.5254">
        <ele>179</ele>
        <time>2025-04-24T12:18:18.000Z</time>
      </trkpt>
      <trkpt lat="44.27504" lon="0.52533">
        <ele>171</ele>
        <time>2025-04-24T12:18:25.000Z</time>
      </trkpt>
      <trkpt lat="44.27512" lon="0.52523">
        <ele>166</ele>
        <time>2025-04-24T12:18:33.000Z</time>
      </trkpt>
      <trkpt lat="44.2752" lon="0.52515">
        <ele>161</ele>
        <time>2025-04-24T12:18:43.000Z</time>
      </trkpt>
      <trkpt lat="44.27529" lon="0.52509">
        <ele>158</ele>
        <time>2025-04-24T12:18:51.000Z</time>
      </trkpt>
      <trkpt lat="44.27536" lon="0.525">
        <ele>155</ele>
        <time>2025-04-24T12:18:59.000Z</time>
      </trkpt>
      <trkpt lat="44.27543" lon="0.52492">
        <ele>153</ele>
        <time>2025-04-24T12:19:07.000Z</time>
      </trkpt>
      <trkpt lat="44.27549" lon="0.5248">
        <ele>151</ele>
        <time>2025-04-24T12:19:15.000Z</time>
      </trkpt>
      <trkpt lat="44.27552" lon="0.52466">
        <ele>150</ele>
        <time>2025-04-24T12:19:29.000Z</time>
      </trkpt>
      <trkpt lat="44.27555" lon="0.52455">
        <ele>149</ele>
        <time>2025-04-24T12:19:35.000Z</time>
      </trkpt>
      <trkpt lat="44.27557" lon="0.52442">
        <ele>148</ele>
        <time>2025-04-24T12:19:41.000Z</time>
      </trkpt>
      <trkpt lat="44.27558" lon="0.52427">
        <ele>148</ele>
        <time>2025-04-24T12:19:49.000Z</time>
      </trkpt>
      <trkpt lat="44.2756" lon="0.52413">
        <ele>147</ele>
        <time>2025-04-24T12:19:57.000Z</time>
      </trkpt>
      <trkpt lat="44.27561" lon="0.524">
        <ele>147</ele>
        <time>2025-04-24T12:20:05.000Z</time>
      </trkpt>
      <trkpt lat="44.27564" lon="0.52387">
        <ele>147</ele>
        <time>2025-04-24T12:20:13.000Z</time>
      </trkpt>
      <trkpt lat="44.27564" lon="0.52374">
        <ele>149</ele>
        <time>2025-04-24T12:20:19.000Z</time>
      </trkpt>
      <trkpt lat="44.27563" lon="0.52361">
        <ele>152</ele>
        <time>2025-04-24T12:20:27.000Z</time>
      </trkpt>
      <trkpt lat="44.27563" lon="0.52347">
        <ele>158</ele>
        <time>2025-04-24T12:20:35.000Z</time>
      </trkpt>
      <trkpt lat="44.27564" lon="0.52334">
        <ele>169</ele>
        <time>2025-04-24T12:20:43.000Z</time>
      </trkpt>
      <trkpt lat="44.27565" lon="0.52322">
        <ele>178</ele>
        <time>2025-04-24T12:20:51.000Z</time>
      </trkpt>
      <trkpt lat="44.27569" lon="0.52308">
        <ele>188</ele>
        <time>2025-04-24T12:20:59.000Z</time>
      </trkpt>
      <trkpt lat="44.27576" lon="0.52298">
        <ele>196</ele>
        <time>2025-04-24T12:21:07.000Z</time>
      </trkpt>
      <trkpt lat="44.27585" lon="0.52292">
        <ele>201</ele>
        <time>2025-04-24T12:21:15.000Z</time>
      </trkpt>
      <trkpt lat="44.27593" lon="0.52286">
        <ele>205</ele>
        <time>2025-04-24T12:21:25.000Z</time>
      </trkpt>
      <trkpt lat="44.276" lon="0.52277">
        <ele>208</ele>
        <time>2025-04-24T12:21:33.000Z</time>
      </trkpt>
      <trkpt lat="44.27607" lon="0.52268">
        <ele>211</ele>
        <time>2025-04-24T12:21:43.000Z</time>
      </trkpt>
      <trkpt lat="44.27612" lon="0.52257">
        <ele>213</ele>
        <time>2025-04-24T12:21:51.000Z</time>
      </trkpt>
      <trkpt lat="44.2762" lon="0.52249">
        <ele>214</ele>
        <time>2025-04-24T12:21:59.000Z</time>
      </trkpt>
      <trkpt lat="44.27628" lon="0.52243">
        <ele>215</ele>
        <time>2025-04-24T12:22:07.000Z</time>
      </trkpt>
      <trkpt lat="44.27634" lon="0.52235">
        <ele>216</ele>
        <time>2025-04-24T12:22:17.000Z</time>
      </trkpt>
      <trkpt lat="44.27632" lon="0.52224">
        <ele>217</ele>
        <time>2025-04-24T12:22:29.000Z</time>
      </trkpt>
      <trkpt lat="44.27629" lon="0.5221">
        <ele>217</ele>
        <time>2025-04-24T12:22:39.000Z</time>
      </trkpt>
      <trkpt lat="44.27629" lon="0.52198">
        <ele>218</ele>
        <time>2025-04-24T12:22:47.000Z</time>
      </trkpt>
      <trkpt lat="44.27629" lon="0.52185">
        <ele>218</ele>
        <time>2025-04-24T12:22:55.000Z</time>
      </trkpt>
      <trkpt lat="44.27626" lon="0.52171">
        <ele>218</ele>
        <time>2025-04-24T12:23:03.000Z</time>
      </trkpt>
      <trkpt lat="44.27624" lon="0.52158">
        <ele>219</ele>
        <time>2025-04-24T12:23:11.000Z</time>
      </trkpt>
      <trkpt lat="44.27622" lon="0.52146">
        <ele>219</ele>
        <time>2025-04-24T12:23:19.000Z</time>
      </trkpt>
      <trkpt lat="44.27622" lon="0.52132">
        <ele>220</ele>
        <time>2025-04-24T12:23:27.000Z</time>
      </trkpt>
      <trkpt lat="44.27619" lon="0.52118">
        <ele>221</ele>
        <time>2025-04-24T12:23:37.000Z</time>
      </trkpt>
      <trkpt lat="44.27615" lon="0.52106">
        <ele>221</ele>
        <time>2025-04-24T12:23:45.000Z</time>
      </trkpt>
      <trkpt lat="44.27608" lon="0.52098">
        <ele>221</ele>
        <time>2025-04-24T12:23:53.000Z</time>
      </trkpt>
      <trkpt lat="44.27598" lon="0.52092">
        <ele>221</ele>
        <time>2025-04-24T12:24:03.000Z</time>
      </trkpt>
      <trkpt lat="44.27592" lon="0.52081">
        <ele>222</ele>
        <time>2025-04-24T12:24:11.000Z</time>
      </trkpt>
      <trkpt lat="44.27587" lon="0.52071">
        <ele>222</ele>
        <time>2025-04-24T12:24:19.000Z</time>
      </trkpt>
      <trkpt lat="44.27583" lon="0.52059">
        <ele>222</ele>
        <time>2025-04-24T12:24:29.000Z</time>
      </trkpt>
      <trkpt lat="44.27579" lon="0.52047">
        <ele>222</ele>
        <time>2025-04-24T12:24:37.000Z</time>
      </trkpt>
      <trkpt lat="44.27574" lon="0.52037">
        <ele>222</ele>
        <time>2025-04-24T12:24:43.000Z</time>
      </trkpt>
      <trkpt lat="44.27571" lon="0.52026">
        <ele>221</ele>
        <time>2025-04-24T12:24:49.000Z</time>
      </trkpt>
      <trkpt lat="44.27568" lon="0.52014">
        <ele>220</ele>
        <time>2025-04-24T12:24:57.000Z</time>
      </trkpt>
      <trkpt lat="44.27562" lon="0.52004">
        <ele>219</ele>
        <time>2025-04-24T12:25:07.000Z</time>
      </trkpt>
      <trkpt lat="44.27555" lon="0.51993">
        <ele>218</ele>
        <time>2025-04-24T12:25:21.000Z</time>
      </trkpt>
      <trkpt lat="44.27546" lon="0.51983">
        <ele>217</ele>
        <time>2025-04-24T12:25:35.000Z</time>
      </trkpt>
      <trkpt lat="44.27539" lon="0.51973">
        <ele>216</ele>
        <time>2025-04-24T12:25:45.000Z</time>
      </trkpt>
      <trkpt lat="44.27534" lon="0.51962">
        <ele>214</ele>
        <time>2025-04-24T12:25:53.000Z</time>
      </trkpt>
      <trkpt lat="44.27528" lon="0.51952">
        <ele>213</ele>
        <time>2025-04-24T12:26:03.000Z</time>
      </trkpt>
      <trkpt lat="44.27523" lon="0.5194">
        <ele>212</ele>
        <time>2025-04-24T12:26:13.000Z</time>
      </trkpt>
      <trkpt lat="44.27515" lon="0.51932">
        <ele>211</ele>
        <time>2025-04-24T12:26:23.000Z</time>
      </trkpt>
      <trkpt lat="44.27507" lon="0.51926">
        <ele>210</ele>
        <time>2025-04-24T12:26:33.000Z</time>
      </trkpt>
      <trkpt lat="44.27499" lon="0.5192">
        <ele>210</ele>
        <time>2025-04-24T12:26:41.000Z</time>
      </trkpt>
      <trkpt lat="44.27492" lon="0.51912">
        <ele>209</ele>
        <time>2025-04-24T12:26:53.000Z</time>
      </trkpt>
      <trkpt lat="44.27485" lon="0.51903">
        <ele>161.1</ele>
        <time>2025-04-24T12:27:03.000Z</time>
      </trkpt>
      <trkpt lat="44.27495" lon="0.5189">
        <ele>207</ele>
        <time>2025-04-24T12:27:17.000Z</time>
      </trkpt>
      <trkpt lat="44.275" lon="0.51879">
        <ele>206</ele>
        <time>2025-04-24T12:27:25.000Z</time>
      </trkpt>
      <trkpt lat="44.27505" lon="0.51867">
        <ele>205</ele>
        <time>2025-04-24T12:28:32.000Z</time>
      </trkpt>
      <trkpt lat="44.27509" lon="0.51857">
        <ele>204</ele>
        <time>2025-04-24T12:28:44.000Z</time>
      </trkpt>
      <trkpt lat="44.27514" lon="0.51846">
        <ele>203</ele>
        <time>2025-04-24T12:29:03.000Z</time>
      </trkpt>
      <trkpt lat="44.27519" lon="0.51836">
        <ele>202</ele>
        <time>2025-04-24T12:29:17.000Z</time>
      </trkpt>
      <trkpt lat="44.27524" lon="0.51825">
        <ele>201</ele>
        <time>2025-04-24T12:29:33.000Z</time>
      </trkpt>
      <trkpt lat="44.27528" lon="0.51813">
        <ele>200</ele>
        <time>2025-04-24T12:29:51.000Z</time>
      </trkpt>
      <trkpt lat="44.27533" lon="0.51801">
        <ele>200</ele>
        <time>2025-04-24T12:30:03.000Z</time>
      </trkpt>
      <trkpt lat="44.27538" lon="0.51791">
        <ele>199</ele>
        <time>2025-04-24T12:30:19.000Z</time>
      </trkpt>
      <trkpt lat="44.27541" lon="0.51778">
        <ele>199</ele>
        <time>2025-04-24T12:30:39.000Z</time>
      </trkpt>
      <trkpt lat="44.27545" lon="0.51767">
        <ele>198</ele>
        <time>2025-04-24T12:30:49.000Z</time>
      </trkpt>
      <trkpt lat="44.27548" lon="0.51756">
        <ele>196</ele>
        <time>2025-04-24T12:31:19.000Z</time>
      </trkpt>
      <trkpt lat="44.27552" lon="0.51745">
        <ele>195</ele>
        <time>2025-04-24T12:31:37.000Z</time>
      </trkpt>
      <trkpt lat="44.27557" lon="0.51733">
        <ele>194</ele>
        <time>2025-04-24T12:32:59.000Z</time>
      </trkpt>
      <trkpt lat="44.27563" lon="0.51722">
        <ele>193</ele>
        <time>2025-04-24T12:33:15.000Z</time>
      </trkpt>
      <trkpt lat="44.27568" lon="0.5171">
        <ele>196</ele>
        <time>2025-04-24T12:33:37.000Z</time>
      </trkpt>
      <trkpt lat="44.27569" lon="0.51697">
        <ele>199</ele>
        <time>2025-04-24T12:34:13.000Z</time>
      </trkpt>
      <trkpt lat="44.27572" lon="0.51685">
        <ele>206</ele>
        <time>2025-04-24T12:34:27.000Z</time>
      </trkpt>
      <trkpt lat="44.27577" lon="0.51673">
        <ele>214</ele>
        <time>2025-04-24T12:34:39.000Z</time>
      </trkpt>
      <trkpt lat="44.27581" lon="0.51661">
        <ele>220</ele>
        <time>2025-04-24T12:34:49.000Z</time>
      </trkpt>
      <trkpt lat="44.27584" lon="0.51648">
        <ele>226</ele>
        <time>2025-04-24T12:35:01.000Z</time>
      </trkpt>
      <trkpt lat="44.27589" lon="0.51637">
        <ele>229</ele>
        <time>2025-04-24T12:35:13.000Z</time>
      </trkpt>
      <trkpt lat="44.27594" lon="0.51625">
        <ele>229</ele>
        <time>2025-04-24T12:35:27.000Z</time>
      </trkpt>
      <trkpt lat="44.27598" lon="0.51613">
        <ele>226</ele>
        <time>2025-04-24T12:35:38.000Z</time>
      </trkpt>
      <trkpt lat="44.27602" lon="0.51603">
        <ele>219</ele>
        <time>2025-04-24T12:35:48.000Z</time>
      </trkpt>
      <trkpt lat="44.27604" lon="0.51591">
        <ele>211</ele>
        <time>2025-04-24T12:35:58.000Z</time>
      </trkpt>
      <trkpt lat="44.27607" lon="0.51578">
        <ele>202</ele>
        <time>2025-04-24T12:36:10.000Z</time>
      </trkpt>
      <trkpt lat="44.27613" lon="0.51568">
        <ele>195</ele>
        <time>2025-04-24T12:36:26.000Z</time>
      </trkpt>
      <trkpt lat="44.27621" lon="0.51562">
        <ele>189</ele>
        <time>2025-04-24T12:36:40.000Z</time>
      </trkpt>
      <trkpt lat="44.27629" lon="0.51558">
        <ele>184</ele>
        <time>2025-04-24T12:37:24.000Z</time>
      </trkpt>
      <trkpt lat="44.27636" lon="0.51552">
        <ele>181</ele>
        <time>2025-04-24T12:38:12.000Z</time>
      </trkpt>
      <trkpt lat="44.27644" lon="0.51549">
        <ele>178</ele>
        <time>2025-04-24T12:40:00.000Z</time>
      </trkpt>
      <trkpt lat="44.27649" lon="0.51539">
        <ele>176</ele>
        <time>2025-04-24T12:40:18.000Z</time>
      </trkpt>
      <trkpt lat="44.27654" lon="0.51528">
        <ele>174</ele>
        <time>2025-04-24T12:40:32.000Z</time>
      </trkpt>
      <trkpt lat="44.2766" lon="0.51517">
        <ele>173</ele>
        <time>2025-04-24T12:40:42.000Z</time>
      </trkpt>
      <trkpt lat="44.27665" lon="0.51506">
        <ele>171</ele>
        <time>2025-04-24T12:40:54.000Z</time>
      </trkpt>
      <trkpt lat="44.27669" lon="0.51495">
        <ele>171</ele>
        <time>2025-04-24T12:41:08.000Z</time>
      </trkpt>
      <trkpt lat="44.27676" lon="0.51486">
        <ele>170</ele>
        <time>2025-04-24T12:41:16.000Z</time>
      </trkpt>
      <trkpt lat="44.27683" lon="0.51475">
        <ele>170</ele>
        <time>2025-04-24T12:41:26.000Z</time>
      </trkpt>
      <trkpt lat="44.27689" lon="0.51464">
        <ele>169</ele>
        <time>2025-04-24T12:41:36.000Z</time>
      </trkpt>
      <trkpt lat="44.27694" lon="0.51452">
        <ele>168</ele>
        <time>2025-04-24T12:41:50.000Z</time>
      </trkpt>
      <trkpt lat="44.27698" lon="0.5144">
        <ele>166</ele>
        <time>2025-04-24T12:42:03.000Z</time>
      </trkpt>
      <trkpt lat="44.27702" lon="0.51429">
        <ele>165</ele>
        <time>2025-04-24T12:42:13.000Z</time>
      </trkpt>
      <trkpt lat="44.27707" lon="0.51418">
        <ele>163</ele>
        <time>2025-04-24T12:42:27.000Z</time>
      </trkpt>
      <trkpt lat="44.27712" lon="0.51407">
        <ele>162</ele>
        <time>2025-04-24T12:42:41.000Z</time>
      </trkpt>
      <trkpt lat="44.27717" lon="0.51397">
        <ele>160</ele>
        <time>2025-04-24T12:42:55.000Z</time>
      </trkpt>
      <trkpt lat="44.27721" lon="0.51384">
        <ele>158</ele>
        <time>2025-04-24T12:43:11.000Z</time>
      </trkpt>
      <trkpt lat="44.2772" lon="0.51371">
        <ele>156</ele>
        <time>2025-04-24T12:43:33.000Z</time>
      </trkpt>
      <trkpt lat="44.27713" lon="0.51362">
        <ele>156</ele>
        <time>2025-04-24T12:43:43.000Z</time>
      </trkpt>
      <trkpt lat="44.27706" lon="0.51355">
        <ele>155</ele>
        <time>2025-04-24T12:43:53.000Z</time>
      </trkpt>
      <trkpt lat="44.27699" lon="0.51347">
        <ele>154</ele>
        <time>2025-04-24T12:46:39.000Z</time>
      </trkpt>
      <trkpt lat="44.27694" lon="0.51336">
        <ele>154</ele>
        <time>2025-04-24T12:46:47.000Z</time>
      </trkpt>
      <trkpt lat="44.27687" lon="0.51326">
        <ele>153</ele>
        <time>2025-04-24T12:46:55.000Z</time>
      </trkpt>
      <trkpt lat="44.2768" lon="0.51316">
        <ele>153</ele>
        <time>2025-04-24T12:47:03.000Z</time>
      </trkpt>
      <trkpt lat="44.27675" lon="0.51306">
        <ele>153</ele>
        <time>2025-04-24T12:47:11.000Z</time>
      </trkpt>
      <trkpt lat="44.27668" lon="0.51296">
        <ele>152</ele>
        <time>2025-04-24T12:47:19.000Z</time>
      </trkpt>
      <trkpt lat="44.27661" lon="0.51288">
        <ele>152</ele>
        <time>2025-04-24T12:47:27.000Z</time>
      </trkpt>
      <trkpt lat="44.27654" lon="0.5128">
        <ele>152</ele>
        <time>2025-04-24T12:47:35.000Z</time>
      </trkpt>
      <trkpt lat="44.27646" lon="0.51272">
        <ele>152</ele>
        <time>2025-04-24T12:47:43.000Z</time>
      </trkpt>
      <trkpt lat="44.27639" lon="0.51265">
        <ele>151</ele>
        <time>2025-04-24T12:47:51.000Z</time>
      </trkpt>
      <trkpt lat="44.27631" lon="0.5126">
        <ele>151</ele>
        <time>2025-04-24T12:47:59.000Z</time>
      </trkpt>
      <trkpt lat="44.27623" lon="0.51253">
        <ele>151</ele>
        <time>2025-04-24T12:48:07.000Z</time>
      </trkpt>
      <trkpt lat="44.27615" lon="0.51247">
        <ele>151</ele>
        <time>2025-04-24T12:48:17.000Z</time>
      </trkpt>
      <trkpt lat="44.27608" lon="0.51241">
        <ele>151</ele>
        <time>2025-04-24T12:48:25.000Z</time>
      </trkpt>
      <trkpt lat="44.27599" lon="0.51235">
        <ele>151</ele>
        <time>2025-04-24T12:48:35.000Z</time>
      </trkpt>
      <trkpt lat="44.27591" lon="0.51228">
        <ele>151</ele>
        <time>2025-04-24T12:48:43.000Z</time>
      </trkpt>
      <trkpt lat="44.27582" lon="0.51222">
        <ele>151</ele>
        <time>2025-04-24T12:48:53.000Z</time>
      </trkpt>
      <trkpt lat="44.27574" lon="0.51213">
        <ele>150</ele>
        <time>2025-04-24T12:49:01.000Z</time>
      </trkpt>
      <trkpt lat="44.27565" lon="0.51205">
        <ele>150</ele>
        <time>2025-04-24T12:49:09.000Z</time>
      </trkpt>
      <trkpt lat="44.27556" lon="0.51197">
        <ele>150</ele>
        <time>2025-04-24T12:49:17.000Z</time>
      </trkpt>
      <trkpt lat="44.27547" lon="0.51189">
        <ele>150</ele>
        <time>2025-04-24T12:49:27.000Z</time>
      </trkpt>
      <trkpt lat="44.27539" lon="0.51181">
        <ele>149</ele>
        <time>2025-04-24T12:49:37.000Z</time>
      </trkpt>
      <trkpt lat="44.27531" lon="0.51174">
        <ele>149</ele>
        <time>2025-04-24T12:49:45.000Z</time>
      </trkpt>
      <trkpt lat="44.27523" lon="0.51167">
        <ele>148</ele>
        <time>2025-04-24T12:49:53.000Z</time>
      </trkpt>
      <trkpt lat="44.27515" lon="0.51161">
        <ele>148</ele>
        <time>2025-04-24T12:50:03.000Z</time>
      </trkpt>
      <trkpt lat="44.27506" lon="0.51155">
        <ele>148</ele>
        <time>2025-04-24T12:50:11.000Z</time>
      </trkpt>
      <trkpt lat="44.27497" lon="0.5115">
        <ele>147</ele>
        <time>2025-04-24T12:50:19.000Z</time>
      </trkpt>
      <trkpt lat="44.27488" lon="0.51144">
        <ele>147</ele>
        <time>2025-04-24T12:50:27.000Z</time>
      </trkpt>
      <trkpt lat="44.27478" lon="0.51141">
        <ele>146</ele>
        <time>2025-04-24T12:50:35.000Z</time>
      </trkpt>
      <trkpt lat="44.27469" lon="0.51139">
        <ele>146</ele>
        <time>2025-04-24T12:50:43.000Z</time>
      </trkpt>
      <trkpt lat="44.2746" lon="0.51135">
        <ele>145</ele>
        <time>2025-04-24T12:50:51.000Z</time>
      </trkpt>
      <trkpt lat="44.27453" lon="0.51129">
        <ele>145</ele>
        <time>2025-04-24T12:50:59.000Z</time>
      </trkpt>
      <trkpt lat="44.27445" lon="0.51122">
        <ele>145</ele>
        <time>2025-04-24T12:51:07.000Z</time>
      </trkpt>
      <trkpt lat="44.27437" lon="0.51114">
        <ele>145</ele>
        <time>2025-04-24T12:51:17.000Z</time>
      </trkpt>
      <trkpt lat="44.2743" lon="0.51106">
        <ele>144</ele>
        <time>2025-04-24T12:51:25.000Z</time>
      </trkpt>
      <trkpt lat="44.27421" lon="0.51097">
        <ele>144</ele>
        <time>2025-04-24T12:51:33.000Z</time>
      </trkpt>
      <trkpt lat="44.27414" lon="0.5109">
        <ele>143</ele>
        <time>2025-04-24T12:51:41.000Z</time>
      </trkpt>
      <trkpt lat="44.27407" lon="0.51082">
        <ele>143</ele>
        <time>2025-04-24T12:51:49.000Z</time>
      </trkpt>
      <trkpt lat="44.27401" lon="0.51072">
        <ele>142</ele>
        <time>2025-04-24T12:51:57.000Z</time>
      </trkpt>
      <trkpt lat="44.27393" lon="0.51063">
        <ele>141</ele>
        <time>2025-04-24T12:52:05.000Z</time>
      </trkpt>
      <trkpt lat="44.27387" lon="0.51053">
        <ele>140</ele>
        <time>2025-04-24T12:52:13.000Z</time>
      </trkpt>
      <trkpt lat="44.27382" lon="0.51042">
        <ele>140</ele>
        <time>2025-04-24T12:52:23.000Z</time>
      </trkpt>
      <trkpt lat="44.27377" lon="0.51031">
        <ele>139</ele>
        <time>2025-04-24T12:52:31.000Z</time>
      </trkpt>
      <trkpt lat="44.27369" lon="0.51022">
        <ele>139</ele>
        <time>2025-04-24T12:52:39.000Z</time>
      </trkpt>
      <trkpt lat="44.27361" lon="0.51015">
        <ele>138</ele>
        <time>2025-04-24T12:52:47.000Z</time>
      </trkpt>
      <trkpt lat="44.27352" lon="0.5101">
        <ele>138</ele>
        <time>2025-04-24T12:52:55.000Z</time>
      </trkpt>
      <trkpt lat="44.27342" lon="0.51009">
        <ele>138</ele>
        <time>2025-04-24T12:53:03.000Z</time>
      </trkpt>
      <trkpt lat="44.27334" lon="0.51009">
        <ele>138</ele>
        <time>2025-04-24T12:53:11.000Z</time>
      </trkpt>
      <trkpt lat="44.27325" lon="0.51009">
        <ele>139</ele>
        <time>2025-04-24T12:53:18.000Z</time>
      </trkpt>
      <trkpt lat="44.27316" lon="0.51009">
        <ele>139</ele>
        <time>2025-04-24T12:53:26.000Z</time>
      </trkpt>
      <trkpt lat="44.27306" lon="0.51009">
        <ele>138</ele>
        <time>2025-04-24T12:53:34.000Z</time>
      </trkpt>
      <trkpt lat="44.27296" lon="0.51008">
        <ele>138</ele>
        <time>2025-04-24T12:53:42.000Z</time>
      </trkpt>
      <trkpt lat="44.27286" lon="0.5101">
        <ele>138</ele>
        <time>2025-04-24T12:53:52.000Z</time>
      </trkpt>
      <trkpt lat="44.27276" lon="0.51009">
        <ele>138</ele>
        <time>2025-04-24T12:54:02.000Z</time>
      </trkpt>
      <trkpt lat="44.27266" lon="0.51006">
        <ele>138</ele>
        <time>2025-04-24T12:54:10.000Z</time>
      </trkpt>
      <trkpt lat="44.27256" lon="0.51004">
        <ele>138</ele>
        <time>2025-04-24T12:54:18.000Z</time>
      </trkpt>
      <trkpt lat="44.27246" lon="0.51001">
        <ele>138</ele>
        <time>2025-04-24T12:54:28.000Z</time>
      </trkpt>
      <trkpt lat="44.27238" lon="0.50997">
        <ele>138</ele>
        <time>2025-04-24T12:54:34.000Z</time>
      </trkpt>
      <trkpt lat="44.27229" lon="0.50994">
        <ele>138</ele>
        <time>2025-04-24T12:54:40.000Z</time>
      </trkpt>
      <trkpt lat="44.2722" lon="0.50993">
        <ele>138</ele>
        <time>2025-04-24T12:54:48.000Z</time>
      </trkpt>
      <trkpt lat="44.27211" lon="0.50991">
        <ele>138</ele>
        <time>2025-04-24T12:54:56.000Z</time>
      </trkpt>
      <trkpt lat="44.27203" lon="0.50985">
        <ele>139</ele>
        <time>2025-04-24T12:55:04.000Z</time>
      </trkpt>
      <trkpt lat="44.27195" lon="0.50978">
        <ele>140</ele>
        <time>2025-04-24T12:55:13.000Z</time>
      </trkpt>
      <trkpt lat="44.27187" lon="0.50972">
        <ele>141</ele>
        <time>2025-04-24T12:55:21.000Z</time>
      </trkpt>
      <trkpt lat="44.27178" lon="0.50965">
        <ele>142</ele>
        <time>2025-04-24T12:55:31.000Z</time>
      </trkpt>
      <trkpt lat="44.2717" lon="0.50958">
        <ele>142</ele>
        <time>2025-04-24T12:55:41.000Z</time>
      </trkpt>
      <trkpt lat="44.27161" lon="0.50956">
        <ele>143</ele>
        <time>2025-04-24T12:55:49.000Z</time>
      </trkpt>
      <trkpt lat="44.27152" lon="0.50959">
        <ele>143</ele>
        <time>2025-04-24T12:55:57.000Z</time>
      </trkpt>
      <trkpt lat="44.27143" lon="0.50961">
        <ele>143</ele>
        <time>2025-04-24T12:56:19.000Z</time>
      </trkpt>
      <trkpt lat="44.27134" lon="0.50964">
        <ele>143</ele>
        <time>2025-04-24T13:00:35.000Z</time>
      </trkpt>
      <trkpt lat="44.27125" lon="0.50971">
        <ele>144</ele>
        <time>2025-04-24T13:00:45.000Z</time>
      </trkpt>
      <trkpt lat="44.27116" lon="0.50974">
        <ele>144</ele>
        <time>2025-04-24T13:00:53.000Z</time>
      </trkpt>
      <trkpt lat="44.27106" lon="0.50976">
        <ele>143</ele>
        <time>2025-04-24T13:01:03.000Z</time>
      </trkpt>
      <trkpt lat="44.27098" lon="0.5098">
        <ele>143</ele>
        <time>2025-04-24T13:01:15.000Z</time>
      </trkpt>
      <trkpt lat="44.27089" lon="0.50982">
        <ele>142</ele>
        <time>2025-04-24T13:01:21.000Z</time>
      </trkpt>
      <trkpt lat="44.2708" lon="0.50984">
        <ele>141</ele>
        <time>2025-04-24T13:01:29.000Z</time>
      </trkpt>
      <trkpt lat="44.27071" lon="0.5099">
        <ele>141</ele>
        <time>2025-04-24T13:01:43.000Z</time>
      </trkpt>
      <trkpt lat="44.27062" lon="0.50995">
        <ele>141</ele>
        <time>2025-04-24T13:01:53.000Z</time>
      </trkpt>
      <trkpt lat="44.27053" lon="0.51001">
        <ele>141</ele>
        <time>2025-04-24T13:02:03.000Z</time>
      </trkpt>
      <trkpt lat="44.27044" lon="0.51">
        <ele>140</ele>
        <time>2025-04-24T13:02:11.000Z</time>
      </trkpt>
      <trkpt lat="44.27036" lon="0.50996">
        <ele>139</ele>
        <time>2025-04-24T13:02:21.000Z</time>
      </trkpt>
      <trkpt lat="44.27026" lon="0.50989">
        <ele>139</ele>
        <time>2025-04-24T13:02:29.000Z</time>
      </trkpt>
      <trkpt lat="44.27016" lon="0.50986">
        <ele>138</ele>
        <time>2025-04-24T13:02:41.000Z</time>
      </trkpt>
      <trkpt lat="44.27006" lon="0.50988">
        <ele>137</ele>
        <time>2025-04-24T13:02:49.000Z</time>
      </trkpt>
      <trkpt lat="44.27" lon="0.50999">
        <ele>136</ele>
        <time>2025-04-24T13:02:57.000Z</time>
      </trkpt>
      <trkpt lat="44.26994" lon="0.5101">
        <ele>136</ele>
        <time>2025-04-24T13:03:05.000Z</time>
      </trkpt>
      <trkpt lat="44.26987" lon="0.51021">
        <ele>135</ele>
        <time>2025-04-24T13:03:16.000Z</time>
      </trkpt>
      <trkpt lat="44.26981" lon="0.51029">
        <ele>136</ele>
        <time>2025-04-24T13:03:28.000Z</time>
      </trkpt>
      <trkpt lat="44.26975" lon="0.51039">
        <ele>136</ele>
        <time>2025-04-24T13:03:35.000Z</time>
      </trkpt>
      <trkpt lat="44.26969" lon="0.51049">
        <ele>137</ele>
        <time>2025-04-24T13:03:43.000Z</time>
      </trkpt>
      <trkpt lat="44.26961" lon="0.51058">
        <ele>137</ele>
        <time>2025-04-24T13:03:51.000Z</time>
      </trkpt>
      <trkpt lat="44.26954" lon="0.51068">
        <ele>138</ele>
        <time>2025-04-24T13:03:59.000Z</time>
      </trkpt>
      <trkpt lat="44.26947" lon="0.51077">
        <ele>138</ele>
        <time>2025-04-24T13:04:09.000Z</time>
      </trkpt>
      <trkpt lat="44.2694" lon="0.51087">
        <ele>139</ele>
        <time>2025-04-24T13:04:19.000Z</time>
      </trkpt>
      <trkpt lat="44.26934" lon="0.51097">
        <ele>139</ele>
        <time>2025-04-24T13:04:28.000Z</time>
      </trkpt>
      <trkpt lat="44.26927" lon="0.51107">
        <ele>140</ele>
        <time>2025-04-24T13:04:38.000Z</time>
      </trkpt>
      <trkpt lat="44.26919" lon="0.51115">
        <ele>141</ele>
        <time>2025-04-24T13:04:46.000Z</time>
      </trkpt>
      <trkpt lat="44.26911" lon="0.51123">
        <ele>142</ele>
        <time>2025-04-24T13:04:54.000Z</time>
      </trkpt>
      <trkpt lat="44.26903" lon="0.51129">
        <ele>143</ele>
        <time>2025-04-24T13:05:02.000Z</time>
      </trkpt>
      <trkpt lat="44.26895" lon="0.51138">
        <ele>143</ele>
        <time>2025-04-24T13:05:12.000Z</time>
      </trkpt>
      <trkpt lat="44.26888" lon="0.51147">
        <ele>144</ele>
        <time>2025-04-24T13:05:22.000Z</time>
      </trkpt>
      <trkpt lat="44.26881" lon="0.51153">
        <ele>145</ele>
        <time>2025-04-24T13:05:32.000Z</time>
      </trkpt>
      <trkpt lat="44.26873" lon="0.5116">
        <ele>145</ele>
        <time>2025-04-24T13:05:42.000Z</time>
      </trkpt>
      <trkpt lat="44.26865" lon="0.51166">
        <ele>146</ele>
        <time>2025-04-24T13:05:50.000Z</time>
      </trkpt>
      <trkpt lat="44.26857" lon="0.51174">
        <ele>146</ele>
        <time>2025-04-24T13:05:58.000Z</time>
      </trkpt>
      <trkpt lat="44.26849" lon="0.5118">
        <ele>146</ele>
        <time>2025-04-24T13:06:06.000Z</time>
      </trkpt>
      <trkpt lat="44.26842" lon="0.51186">
        <ele>146</ele>
        <time>2025-04-24T13:06:14.000Z</time>
      </trkpt>
      <trkpt lat="44.26834" lon="0.51194">
        <ele>147</ele>
        <time>2025-04-24T13:06:24.000Z</time>
      </trkpt>
      <trkpt lat="44.26827" lon="0.51201">
        <ele>147</ele>
        <time>2025-04-24T13:06:34.000Z</time>
      </trkpt>
      <trkpt lat="44.26819" lon="0.51209">
        <ele>148</ele>
        <time>2025-04-24T13:06:47.000Z</time>
      </trkpt>
      <trkpt lat="44.26812" lon="0.51218">
        <ele>149</ele>
        <time>2025-04-24T13:06:54.000Z</time>
      </trkpt>
      <trkpt lat="44.26804" lon="0.51225">
        <ele>150</ele>
        <time>2025-04-24T13:07:04.000Z</time>
      </trkpt>
      <trkpt lat="44.26797" lon="0.51233">
        <ele>152</ele>
        <time>2025-04-24T13:07:12.000Z</time>
      </trkpt>
      <trkpt lat="44.26791" lon="0.51242">
        <ele>153</ele>
        <time>2025-04-24T13:07:22.000Z</time>
      </trkpt>
      <trkpt lat="44.26783" lon="0.5125">
        <ele>153</ele>
        <time>2025-04-24T13:07:32.000Z</time>
      </trkpt>
      <trkpt lat="44.26775" lon="0.51259">
        <ele>154</ele>
        <time>2025-04-24T13:07:44.000Z</time>
      </trkpt>
      <trkpt lat="44.26766" lon="0.51267">
        <ele>154</ele>
        <time>2025-04-24T13:07:54.000Z</time>
      </trkpt>
      <trkpt lat="44.26757" lon="0.5127">
        <ele>154</ele>
        <time>2025-04-24T13:08:44.000Z</time>
      </trkpt>
      <trkpt lat="44.26748" lon="0.51267">
        <ele>155</ele>
        <time>2025-04-24T13:09:04.000Z</time>
      </trkpt>
      <trkpt lat="44.26743" lon="0.51258">
        <ele>157</ele>
        <time>2025-04-24T13:09:24.000Z</time>
      </trkpt>
      <trkpt lat="44.26736" lon="0.51249">
        <ele>159</ele>
        <time>2025-04-24T13:09:42.000Z</time>
      </trkpt>
      <trkpt lat="44.26732" lon="0.51239">
        <ele>161</ele>
        <time>2025-04-24T13:10:02.000Z</time>
      </trkpt>
      <trkpt lat="44.26733" lon="0.51227">
        <ele>163</ele>
        <time>2025-04-24T13:10:14.000Z</time>
      </trkpt>
      <trkpt lat="44.26733" lon="0.51215">
        <ele>164</ele>
        <time>2025-04-24T13:10:36.000Z</time>
      </trkpt>
      <trkpt lat="44.26735" lon="0.51203">
        <ele>166</ele>
        <time>2025-04-24T13:10:52.000Z</time>
      </trkpt>
      <trkpt lat="44.26739" lon="0.51193">
        <ele>167</ele>
        <time>2025-04-24T13:11:10.000Z</time>
      </trkpt>
      <trkpt lat="44.2674" lon="0.51181">
        <ele>168</ele>
        <time>2025-04-24T13:11:30.000Z</time>
      </trkpt>
      <trkpt lat="44.26746" lon="0.51173">
        <ele>169</ele>
        <time>2025-04-24T13:12:10.000Z</time>
      </trkpt>
      <trkpt lat="44.2675" lon="0.51161">
        <ele>170</ele>
        <time>2025-04-24T13:12:20.000Z</time>
      </trkpt>
      <trkpt lat="44.26754" lon="0.51148">
        <ele>171</ele>
        <time>2025-04-24T13:12:32.000Z</time>
      </trkpt>
      <trkpt lat="44.26758" lon="0.51136">
        <ele>172</ele>
        <time>2025-04-24T13:12:44.000Z</time>
      </trkpt>
      <trkpt lat="44.26764" lon="0.51125">
        <ele>173</ele>
        <time>2025-04-24T13:12:54.000Z</time>
      </trkpt>
      <trkpt lat="44.26771" lon="0.51117">
        <ele>174</ele>
        <time>2025-04-24T13:13:10.000Z</time>
      </trkpt>
      <trkpt lat="44.26776" lon="0.51107">
        <ele>175</ele>
        <time>2025-04-24T13:13:20.000Z</time>
      </trkpt>
      <trkpt lat="44.26783" lon="0.51098">
        <ele>175</ele>
        <time>2025-04-24T13:13:28.000Z</time>
      </trkpt>
      <trkpt lat="44.26789" lon="0.51089">
        <ele>175</ele>
        <time>2025-04-24T13:13:38.000Z</time>
      </trkpt>
      <trkpt lat="44.26792" lon="0.51077">
        <ele>176</ele>
        <time>2025-04-24T13:13:58.000Z</time>
      </trkpt>
      <trkpt lat="44.26792" lon="0.51064">
        <ele>176</ele>
        <time>2025-04-24T13:14:10.000Z</time>
      </trkpt>
      <trkpt lat="44.26793" lon="0.51052">
        <ele>176</ele>
        <time>2025-04-24T13:14:24.000Z</time>
      </trkpt>
      <trkpt lat="44.2679" lon="0.51041">
        <ele>177</ele>
        <time>2025-04-24T13:14:42.000Z</time>
      </trkpt>
      <trkpt lat="44.26788" lon="0.51028">
        <ele>177</ele>
        <time>2025-04-24T13:14:56.000Z</time>
      </trkpt>
      <trkpt lat="44.26786" lon="0.51016">
        <ele>177</ele>
        <time>2025-04-24T13:15:10.000Z</time>
      </trkpt>
      <trkpt lat="44.26779" lon="0.5101">
        <ele>177</ele>
        <time>2025-04-24T13:15:20.000Z</time>
      </trkpt>
      <trkpt lat="44.2677" lon="0.51009">
        <ele>177</ele>
        <time>2025-04-24T13:15:32.000Z</time>
      </trkpt>
      <trkpt lat="44.26761" lon="0.51008">
        <ele>179</ele>
        <time>2025-04-24T13:15:42.000Z</time>
      </trkpt>
      <trkpt lat="44.26752" lon="0.5101">
        <ele>180</ele>
        <time>2025-04-24T13:15:50.000Z</time>
      </trkpt>
      <trkpt lat="44.26742" lon="0.51012">
        <ele>181</ele>
        <time>2025-04-24T13:16:04.000Z</time>
      </trkpt>
      <trkpt lat="44.26733" lon="0.51017">
        <ele>182</ele>
        <time>2025-04-24T13:16:34.000Z</time>
      </trkpt>
      <trkpt lat="44.26725" lon="0.51016">
        <ele>182</ele>
        <time>2025-04-24T13:16:40.000Z</time>
      </trkpt>
      <trkpt lat="44.26718" lon="0.51024">
        <ele>182</ele>
        <time>2025-04-24T13:16:48.000Z</time>
      </trkpt>
      <trkpt lat="44.26711" lon="0.51033">
        <ele>182</ele>
        <time>2025-04-24T13:16:58.000Z</time>
      </trkpt>
      <trkpt lat="44.26703" lon="0.51042">
        <ele>184</ele>
        <time>2025-04-24T13:17:10.000Z</time>
      </trkpt>
      <trkpt lat="44.26696" lon="0.51051">
        <ele>188</ele>
        <time>2025-04-24T13:17:20.000Z</time>
      </trkpt>
      <trkpt lat="44.26685" lon="0.51055">
        <ele>197</ele>
        <time>2025-04-24T13:17:36.000Z</time>
      </trkpt>
      <trkpt lat="44.26676" lon="0.51058">
        <ele>207</ele>
        <time>2025-04-24T13:17:44.000Z</time>
      </trkpt>
      <trkpt lat="44.26667" lon="0.5106">
        <ele>215</ele>
        <time>2025-04-24T13:17:56.000Z</time>
      </trkpt>
      <trkpt lat="44.26659" lon="0.51061">
        <ele>222</ele>
        <time>2025-04-24T13:18:26.000Z</time>
      </trkpt>
      <trkpt lat="44.26659" lon="0.51072">
        <ele>226</ele>
        <time>2025-04-24T13:19:45.000Z</time>
      </trkpt>
      <trkpt lat="44.26657" lon="0.51085">
        <ele>230</ele>
        <time>2025-04-24T13:19:55.000Z</time>
      </trkpt>
      <trkpt lat="44.26653" lon="0.51097">
        <ele>233</ele>
        <time>2025-04-24T13:20:09.000Z</time>
      </trkpt>
      <trkpt lat="44.26645" lon="0.51106">
        <ele>235</ele>
        <time>2025-04-24T13:20:19.000Z</time>
      </trkpt>
      <trkpt lat="44.26638" lon="0.51116">
        <ele>237</ele>
        <time>2025-04-24T13:20:29.000Z</time>
      </trkpt>
      <trkpt lat="44.26632" lon="0.51128">
        <ele>238</ele>
        <time>2025-04-24T13:20:39.000Z</time>
      </trkpt>
      <trkpt lat="44.26627" lon="0.5114">
        <ele>239</ele>
        <time>2025-04-24T13:20:49.000Z</time>
      </trkpt>
      <trkpt lat="44.26621" lon="0.5115">
        <ele>240</ele>
        <time>2025-04-24T13:20:59.000Z</time>
      </trkpt>
      <trkpt lat="44.26614" lon="0.51155">
        <ele>240</ele>
        <time>2025-04-24T13:21:07.000Z</time>
      </trkpt>
      <trkpt lat="44.26605" lon="0.51153">
        <ele>241</ele>
        <time>2025-04-24T13:21:13.000Z</time>
      </trkpt>
      <trkpt lat="44.26597" lon="0.51148">
        <ele>241</ele>
        <time>2025-04-24T13:21:21.000Z</time>
      </trkpt>
      <trkpt lat="44.26589" lon="0.51142">
        <ele>241</ele>
        <time>2025-04-24T13:21:29.000Z</time>
      </trkpt>
      <trkpt lat="44.26581" lon="0.51136">
        <ele>241</ele>
        <time>2025-04-24T13:21:37.000Z</time>
      </trkpt>
      <trkpt lat="44.26574" lon="0.51129">
        <ele>238</ele>
        <time>2025-04-24T13:21:45.000Z</time>
      </trkpt>
      <trkpt lat="44.26566" lon="0.51121">
        <ele>235</ele>
        <time>2025-04-24T13:21:55.000Z</time>
      </trkpt>
      <trkpt lat="44.26558" lon="0.51114">
        <ele>228</ele>
        <time>2025-04-24T13:22:05.000Z</time>
      </trkpt>
      <trkpt lat="44.2655" lon="0.51106">
        <ele>220</ele>
        <time>2025-04-24T13:22:13.000Z</time>
      </trkpt>
      <trkpt lat="44.26541" lon="0.511">
        <ele>214</ele>
        <time>2025-04-24T13:22:23.000Z</time>
      </trkpt>
      <trkpt lat="44.26533" lon="0.51092">
        <ele>208</ele>
        <time>2025-04-24T13:22:33.000Z</time>
      </trkpt>
      <trkpt lat="44.26525" lon="0.51084">
        <ele>205</ele>
        <time>2025-04-24T13:22:43.000Z</time>
      </trkpt>
      <trkpt lat="44.26517" lon="0.51086">
        <ele>203</ele>
        <time>2025-04-24T13:23:03.000Z</time>
      </trkpt>
      <trkpt lat="44.26512" lon="0.51097">
        <ele>202</ele>
        <time>2025-04-24T13:23:15.000Z</time>
      </trkpt>
      <trkpt lat="44.26507" lon="0.5111">
        <ele>201</ele>
        <time>2025-04-24T13:23:27.000Z</time>
      </trkpt>
      <trkpt lat="44.26501" lon="0.51121">
        <ele>201</ele>
        <time>2025-04-24T13:23:39.000Z</time>
      </trkpt>
      <trkpt lat="44.26496" lon="0.51134">
        <ele>202</ele>
        <time>2025-04-24T13:23:53.000Z</time>
      </trkpt>
      <trkpt lat="44.2649" lon="0.51145">
        <ele>203</ele>
        <time>2025-04-24T13:24:05.000Z</time>
      </trkpt>
      <trkpt lat="44.26484" lon="0.51156">
        <ele>204</ele>
        <time>2025-04-24T13:24:19.000Z</time>
      </trkpt>
      <trkpt lat="44.26479" lon="0.51167">
        <ele>204</ele>
        <time>2025-04-24T13:24:31.000Z</time>
      </trkpt>
      <trkpt lat="44.26473" lon="0.51178">
        <ele>209</ele>
        <time>2025-04-24T13:24:43.000Z</time>
      </trkpt>
      <trkpt lat="44.26466" lon="0.51188">
        <ele>214</ele>
        <time>2025-04-24T13:24:55.000Z</time>
      </trkpt>
      <trkpt lat="44.26458" lon="0.51193">
        <ele>220</ele>
        <time>2025-04-24T13:27:03.000Z</time>
      </trkpt>
      <trkpt lat="44.2645" lon="0.51189">
        <ele>227</ele>
        <time>2025-04-24T13:27:13.000Z</time>
      </trkpt>
      <trkpt lat="44.26443" lon="0.5118">
        <ele>230</ele>
        <time>2025-04-24T13:27:21.000Z</time>
      </trkpt>
      <trkpt lat="44.26437" lon="0.51169">
        <ele>232</ele>
        <time>2025-04-24T13:27:29.000Z</time>
      </trkpt>
      <trkpt lat="44.26431" lon="0.5116">
        <ele>235</ele>
        <time>2025-04-24T13:27:37.000Z</time>
      </trkpt>
      <trkpt lat="44.26424" lon="0.5115">
        <ele>237</ele>
        <time>2025-04-24T13:27:47.000Z</time>
      </trkpt>
      <trkpt lat="44.26417" lon="0.51142">
        <ele>238</ele>
        <time>2025-04-24T13:27:55.000Z</time>
      </trkpt>
      <trkpt lat="44.2641" lon="0.51134">
        <ele>239</ele>
        <time>2025-04-24T13:28:03.000Z</time>
      </trkpt>
      <trkpt lat="44.26404" lon="0.51122">
        <ele>240</ele>
        <time>2025-04-24T13:28:13.000Z</time>
      </trkpt>
      <trkpt lat="44.26399" lon="0.51111">
        <ele>240</ele>
        <time>2025-04-24T13:28:27.000Z</time>
      </trkpt>
      <trkpt lat="44.264" lon="0.511">
        <ele>241</ele>
        <time>2025-04-24T13:28:41.000Z</time>
      </trkpt>
      <trkpt lat="44.26403" lon="0.51088">
        <ele>241</ele>
        <time>2025-04-24T13:30:01.000Z</time>
      </trkpt>
      <trkpt lat="44.26407" lon="0.51077">
        <ele>241</ele>
        <time>2025-04-24T13:30:13.000Z</time>
      </trkpt>
      <trkpt lat="44.26411" lon="0.51066">
        <ele>241</ele>
        <time>2025-04-24T13:30:29.000Z</time>
      </trkpt>
      <trkpt lat="44.26416" lon="0.51057">
        <ele>242</ele>
        <time>2025-04-24T13:31:07.000Z</time>
      </trkpt>
      <trkpt lat="44.26417" lon="0.51044">
        <ele>242</ele>
        <time>2025-04-24T13:31:34.000Z</time>
      </trkpt>
      <trkpt lat="44.26419" lon="0.51033">
        <ele>242</ele>
        <time>2025-04-24T13:31:52.000Z</time>
      </trkpt>
      <trkpt lat="44.26414" lon="0.51025">
        <ele>242</ele>
        <time>2025-04-24T13:32:04.000Z</time>
      </trkpt>
      <trkpt lat="44.26405" lon="0.51024">
        <ele>242</ele>
        <time>2025-04-24T13:32:52.000Z</time>
      </trkpt>
      <trkpt lat="44.26395" lon="0.51023">
        <ele>242</ele>
        <time>2025-04-24T13:34:56.000Z</time>
      </trkpt>
      <trkpt lat="44.26386" lon="0.51025">
        <ele>242</ele>
        <time>2025-04-24T13:35:08.000Z</time>
      </trkpt>
      <trkpt lat="44.26377" lon="0.51028">
        <ele>242</ele>
        <time>2025-04-24T13:35:18.000Z</time>
      </trkpt>
      <trkpt lat="44.26368" lon="0.51031">
        <ele>242</ele>
        <time>2025-04-24T13:35:30.000Z</time>
      </trkpt>
      <trkpt lat="44.26359" lon="0.51032">
        <ele>242</ele>
        <time>2025-04-24T13:35:40.000Z</time>
      </trkpt>
      <trkpt lat="44.2635" lon="0.51033">
        <ele>241</ele>
        <time>2025-04-24T13:35:50.000Z</time>
      </trkpt>
      <trkpt lat="44.2634" lon="0.51035">
        <ele>241</ele>
        <time>2025-04-24T13:36:00.000Z</time>
      </trkpt>
      <trkpt lat="44.2633" lon="0.51036">
        <ele>241</ele>
        <time>2025-04-24T13:36:10.000Z</time>
      </trkpt>
      <trkpt lat="44.26321" lon="0.51037">
        <ele>241</ele>
        <time>2025-04-24T13:36:20.000Z</time>
      </trkpt>
      <trkpt lat="44.26313" lon="0.51039">
        <ele>242</ele>
        <time>2025-04-24T13:36:30.000Z</time>
      </trkpt>
      <trkpt lat="44.26306" lon="0.51047">
        <ele>242</ele>
        <time>2025-04-24T13:36:42.000Z</time>
      </trkpt>
      <trkpt lat="44.26299" lon="0.51057">
        <ele>242</ele>
        <time>2025-04-24T13:36:52.000Z</time>
      </trkpt>
      <trkpt lat="44.26292" lon="0.51066">
        <ele>242</ele>
        <time>2025-04-24T13:37:02.000Z</time>
      </trkpt>
      <trkpt lat="44.26286" lon="0.51075">
        <ele>242</ele>
        <time>2025-04-24T13:37:12.000Z</time>
      </trkpt>
      <trkpt lat="44.2628" lon="0.51085">
        <ele>242</ele>
        <time>2025-04-24T13:37:24.000Z</time>
      </trkpt>
      <trkpt lat="44.26274" lon="0.51096">
        <ele>242</ele>
        <time>2025-04-24T13:37:34.000Z</time>
      </trkpt>
      <trkpt lat="44.26267" lon="0.51106">
        <ele>238</ele>
        <time>2025-04-24T13:37:46.000Z</time>
      </trkpt>
      <trkpt lat="44.26261" lon="0.51115">
        <ele>234</ele>
        <time>2025-04-24T13:37:56.000Z</time>
      </trkpt>
      <trkpt lat="44.26253" lon="0.51124">
        <ele>230</ele>
        <time>2025-04-24T13:38:08.000Z</time>
      </trkpt>
      <trkpt lat="44.26246" lon="0.51134">
        <ele>225</ele>
        <time>2025-04-24T13:38:20.000Z</time>
      </trkpt>
      <trkpt lat="44.2624" lon="0.51144">
        <ele>227</ele>
        <time>2025-04-24T13:38:32.000Z</time>
      </trkpt>
      <trkpt lat="44.26233" lon="0.51153">
        <ele>229</ele>
        <time>2025-04-24T13:38:44.000Z</time>
      </trkpt>
      <trkpt lat="44.26227" lon="0.51163">
        <ele>232</ele>
        <time>2025-04-24T13:38:54.000Z</time>
      </trkpt>
      <trkpt lat="44.2622" lon="0.51171">
        <ele>235</ele>
        <time>2025-04-24T13:39:04.000Z</time>
      </trkpt>
      <trkpt lat="44.26214" lon="0.5118">
        <ele>236</ele>
        <time>2025-04-24T13:39:16.000Z</time>
      </trkpt>
      <trkpt lat="44.26207" lon="0.5119">
        <ele>238</ele>
        <time>2025-04-24T13:39:28.000Z</time>
      </trkpt>
      <trkpt lat="44.262" lon="0.512">
        <ele>239</ele>
        <time>2025-04-24T13:39:40.000Z</time>
      </trkpt>
      <trkpt lat="44.26193" lon="0.51205">
        <ele>239</ele>
        <time>2025-04-24T13:41:56.000Z</time>
      </trkpt>
      <trkpt lat="44.26185" lon="0.51201">
        <ele>240</ele>
        <time>2025-04-24T13:42:06.000Z</time>
      </trkpt>
      <trkpt lat="44.26177" lon="0.51194">
        <ele>240</ele>
        <time>2025-04-24T13:42:16.000Z</time>
      </trkpt>
      <trkpt lat="44.26169" lon="0.51187">
        <ele>241</ele>
        <time>2025-04-24T13:42:28.000Z</time>
      </trkpt>
      <trkpt lat="44.26161" lon="0.51178">
        <ele>241</ele>
        <time>2025-04-24T13:42:38.000Z</time>
      </trkpt>
      <trkpt lat="44.26155" lon="0.5117">
        <ele>241</ele>
        <time>2025-04-24T13:42:46.000Z</time>
      </trkpt>
      <trkpt lat="44.26147" lon="0.51161">
        <ele>241</ele>
        <time>2025-04-24T13:42:56.000Z</time>
      </trkpt>
      <trkpt lat="44.26139" lon="0.51152">
        <ele>242</ele>
        <time>2025-04-24T13:43:04.000Z</time>
      </trkpt>
      <trkpt lat="44.26131" lon="0.51144">
        <ele>242</ele>
        <time>2025-04-24T13:43:14.000Z</time>
      </trkpt>
      <trkpt lat="44.26124" lon="0.51138">
        <ele>242</ele>
        <time>2025-04-24T13:43:22.000Z</time>
      </trkpt>
      <trkpt lat="44.26114" lon="0.5114">
        <ele>242</ele>
        <time>2025-04-24T13:43:30.000Z</time>
      </trkpt>
      <trkpt lat="44.26105" lon="0.51145">
        <ele>242</ele>
        <time>2025-04-24T13:43:40.000Z</time>
      </trkpt>
      <trkpt lat="44.26096" lon="0.51151">
        <ele>242</ele>
        <time>2025-04-24T13:43:50.000Z</time>
      </trkpt>
      <trkpt lat="44.26088" lon="0.51158">
        <ele>242</ele>
        <time>2025-04-24T13:43:58.000Z</time>
      </trkpt>
      <trkpt lat="44.26079" lon="0.51165">
        <ele>242</ele>
        <time>2025-04-24T13:44:08.000Z</time>
      </trkpt>
      <trkpt lat="44.26069" lon="0.51171">
        <ele>242</ele>
        <time>2025-04-24T13:44:17.000Z</time>
      </trkpt>
      <trkpt lat="44.2606" lon="0.51176">
        <ele>242</ele>
        <time>2025-04-24T13:44:25.000Z</time>
      </trkpt>
      <trkpt lat="44.26049" lon="0.51179">
        <ele>242</ele>
        <time>2025-04-24T13:44:33.000Z</time>
      </trkpt>
      <trkpt lat="44.26039" lon="0.51179">
        <ele>242</ele>
        <time>2025-04-24T13:44:43.000Z</time>
      </trkpt>
      <trkpt lat="44.26029" lon="0.51178">
        <ele>242</ele>
        <time>2025-04-24T13:44:53.000Z</time>
      </trkpt>
      <trkpt lat="44.26019" lon="0.51177">
        <ele>242</ele>
        <time>2025-04-24T13:45:01.000Z</time>
      </trkpt>
      <trkpt lat="44.26009" lon="0.51173">
        <ele>242</ele>
        <time>2025-04-24T13:45:11.000Z</time>
      </trkpt>
      <trkpt lat="44.25999" lon="0.51171">
        <ele>242</ele>
        <time>2025-04-24T13:45:19.000Z</time>
      </trkpt>
      <trkpt lat="44.2599" lon="0.51168">
        <ele>242</ele>
        <time>2025-04-24T13:45:27.000Z</time>
      </trkpt>
      <trkpt lat="44.25981" lon="0.51167">
        <ele>242</ele>
        <time>2025-04-24T13:45:35.000Z</time>
      </trkpt>
      <trkpt lat="44.25973" lon="0.51163">
        <ele>242</ele>
        <time>2025-04-24T13:45:43.000Z</time>
      </trkpt>
      <trkpt lat="44.25963" lon="0.51159">
        <ele>242</ele>
        <time>2025-04-24T13:45:53.000Z</time>
      </trkpt>
      <trkpt lat="44.25955" lon="0.51155">
        <ele>242</ele>
        <time>2025-04-24T13:46:01.000Z</time>
      </trkpt>
      <trkpt lat="44.25946" lon="0.51152">
        <ele>242</ele>
        <time>2025-04-24T13:46:09.000Z</time>
      </trkpt>
      <trkpt lat="44.25937" lon="0.51149">
        <ele>242</ele>
        <time>2025-04-24T13:46:17.000Z</time>
      </trkpt>
      <trkpt lat="44.25929" lon="0.51145">
        <ele>239</ele>
        <time>2025-04-24T13:46:25.000Z</time>
      </trkpt>
      <trkpt lat="44.25919" lon="0.51141">
        <ele>235</ele>
        <time>2025-04-24T13:46:35.000Z</time>
      </trkpt>
      <trkpt lat="44.25911" lon="0.51136">
        <ele>230</ele>
        <time>2025-04-24T13:46:45.000Z</time>
      </trkpt>
      <trkpt lat="44.25901" lon="0.51132">
        <ele>225</ele>
        <time>2025-04-24T13:47:07.000Z</time>
      </trkpt>
      <trkpt lat="44.25893" lon="0.51128">
        <ele>223</ele>
        <time>2025-04-24T13:47:13.000Z</time>
      </trkpt>
      <trkpt lat="44.25884" lon="0.51124">
        <ele>221</ele>
        <time>2025-04-24T13:47:21.000Z</time>
      </trkpt>
      <trkpt lat="44.25875" lon="0.51121">
        <ele>219</ele>
        <time>2025-04-24T13:47:29.000Z</time>
      </trkpt>
      <trkpt lat="44.25864" lon="0.51115">
        <ele>217</ele>
        <time>2025-04-24T13:47:39.000Z</time>
      </trkpt>
      <trkpt lat="44.25855" lon="0.5111">
        <ele>216</ele>
        <time>2025-04-24T13:47:47.000Z</time>
      </trkpt>
      <trkpt lat="44.25846" lon="0.51106">
        <ele>215</ele>
        <time>2025-04-24T13:47:57.000Z</time>
      </trkpt>
      <trkpt lat="44.25836" lon="0.51105">
        <ele>214</ele>
        <time>2025-04-24T13:48:23.000Z</time>
      </trkpt>
      <trkpt lat="44.25826" lon="0.511">
        <ele>212</ele>
        <time>2025-04-24T13:48:31.000Z</time>
      </trkpt>
      <trkpt lat="44.25816" lon="0.51095">
        <ele>211</ele>
        <time>2025-04-24T13:48:39.000Z</time>
      </trkpt>
      <trkpt lat="44.25808" lon="0.51089">
        <ele>210</ele>
        <time>2025-04-24T13:48:47.000Z</time>
      </trkpt>
      <trkpt lat="44.258" lon="0.51082">
        <ele>208</ele>
        <time>2025-04-24T13:48:55.000Z</time>
      </trkpt>
      <trkpt lat="44.25792" lon="0.51076">
        <ele>207</ele>
        <time>2025-04-24T13:49:03.000Z</time>
      </trkpt>
      <trkpt lat="44.25783" lon="0.51072">
        <ele>205</ele>
        <time>2025-04-24T13:49:13.000Z</time>
      </trkpt>
      <trkpt lat="44.25774" lon="0.51066">
        <ele>203</ele>
        <time>2025-04-24T13:49:21.000Z</time>
      </trkpt>
      <trkpt lat="44.25764" lon="0.5106">
        <ele>202</ele>
        <time>2025-04-24T13:49:31.000Z</time>
      </trkpt>
      <trkpt lat="44.25755" lon="0.51056">
        <ele>200</ele>
        <time>2025-04-24T13:49:39.000Z</time>
      </trkpt>
      <trkpt lat="44.25746" lon="0.5105">
        <ele>199</ele>
        <time>2025-04-24T13:49:48.000Z</time>
      </trkpt>
      <trkpt lat="44.25737" lon="0.51046">
        <ele>197</ele>
        <time>2025-04-24T13:49:56.000Z</time>
      </trkpt>
      <trkpt lat="44.25728" lon="0.51042">
        <ele>195</ele>
        <time>2025-04-24T13:50:04.000Z</time>
      </trkpt>
      <trkpt lat="44.2572" lon="0.51037">
        <ele>193</ele>
        <time>2025-04-24T13:50:12.000Z</time>
      </trkpt>
      <trkpt lat="44.2571" lon="0.51033">
        <ele>191</ele>
        <time>2025-04-24T13:50:22.000Z</time>
      </trkpt>
      <trkpt lat="44.25704" lon="0.51037">
        <ele>190</ele>
        <time>2025-04-24T13:51:11.000Z</time>
      </trkpt>
      <trkpt lat="44.25704" lon="0.51051">
        <ele>189</ele>
        <time>2025-04-24T13:52:09.000Z</time>
      </trkpt>
      <trkpt lat="44.25704" lon="0.51065">
        <ele>188</ele>
        <time>2025-04-24T13:52:19.000Z</time>
      </trkpt>
      <trkpt lat="44.25703" lon="0.51077">
        <ele>188</ele>
        <time>2025-04-24T13:52:27.000Z</time>
      </trkpt>
      <trkpt lat="44.25704" lon="0.51089">
        <ele>187</ele>
        <time>2025-04-24T13:52:37.000Z</time>
      </trkpt>
      <trkpt lat="44.25706" lon="0.51102">
        <ele>187</ele>
        <time>2025-04-24T13:52:47.000Z</time>
      </trkpt>
      <trkpt lat="44.25709" lon="0.51116">
        <ele>186</ele>
        <time>2025-04-24T13:52:57.000Z</time>
      </trkpt>
      <trkpt lat="44.25711" lon="0.5113">
        <ele>186</ele>
        <time>2025-04-24T13:53:05.000Z</time>
      </trkpt>
      <trkpt lat="44.25713" lon="0.51143">
        <ele>186</ele>
        <time>2025-04-24T13:53:13.000Z</time>
      </trkpt>
      <trkpt lat="44.25715" lon="0.51157">
        <ele>186</ele>
        <time>2025-04-24T13:53:21.000Z</time>
      </trkpt>
      <trkpt lat="44.25718" lon="0.51169">
        <ele>186</ele>
        <time>2025-04-24T13:53:27.000Z</time>
      </trkpt>
      <trkpt lat="44.25723" lon="0.51181">
        <ele>186</ele>
        <time>2025-04-24T13:53:35.000Z</time>
      </trkpt>
      <trkpt lat="44.25727" lon="0.51193">
        <ele>187</ele>
        <time>2025-04-24T13:53:45.000Z</time>
      </trkpt>
      <trkpt lat="44.25731" lon="0.51206">
        <ele>187</ele>
        <time>2025-04-24T13:53:53.000Z</time>
      </trkpt>
      <trkpt lat="44.25737" lon="0.51217">
        <ele>188</ele>
        <time>2025-04-24T13:54:17.000Z</time>
      </trkpt>
      <trkpt lat="44.25745" lon="0.51226">
        <ele>188</ele>
        <time>2025-04-24T13:54:35.000Z</time>
      </trkpt>
      <trkpt lat="44.25752" lon="0.51234">
        <ele>189</ele>
        <time>2025-04-24T13:54:43.000Z</time>
      </trkpt>
      <trkpt lat="44.25759" lon="0.51244">
        <ele>189</ele>
        <time>2025-04-24T13:54:55.000Z</time>
      </trkpt>
      <trkpt lat="44.25764" lon="0.51256">
        <ele>189</ele>
        <time>2025-04-24T13:55:03.000Z</time>
      </trkpt>
      <trkpt lat="44.2577" lon="0.51267">
        <ele>189</ele>
        <time>2025-04-24T13:55:11.000Z</time>
      </trkpt>
      <trkpt lat="44.25775" lon="0.51277">
        <ele>189</ele>
        <time>2025-04-24T13:55:19.000Z</time>
      </trkpt>
      <trkpt lat="44.25781" lon="0.51288">
        <ele>189</ele>
        <time>2025-04-24T13:55:29.000Z</time>
      </trkpt>
      <trkpt lat="44.25782" lon="0.51302">
        <ele>189</ele>
        <time>2025-04-24T13:55:39.000Z</time>
      </trkpt>
      <trkpt lat="44.25784" lon="0.51315">
        <ele>189</ele>
        <time>2025-04-24T13:55:49.000Z</time>
      </trkpt>
      <trkpt lat="44.25789" lon="0.51327">
        <ele>189</ele>
        <time>2025-04-24T13:55:57.000Z</time>
      </trkpt>
      <trkpt lat="44.2579" lon="0.5134">
        <ele>189</ele>
        <time>2025-04-24T13:56:05.000Z</time>
      </trkpt>
      <trkpt lat="44.25786" lon="0.51352">
        <ele>190</ele>
        <time>2025-04-24T13:56:13.000Z</time>
      </trkpt>
      <trkpt lat="44.2578" lon="0.51364">
        <ele>190</ele>
        <time>2025-04-24T13:56:21.000Z</time>
      </trkpt>
      <trkpt lat="44.25776" lon="0.51376">
        <ele>190</ele>
        <time>2025-04-24T13:56:31.000Z</time>
      </trkpt>
      <trkpt lat="44.25775" lon="0.51389">
        <ele>190</ele>
        <time>2025-04-24T13:56:39.000Z</time>
      </trkpt>
      <trkpt lat="44.25775" lon="0.51402">
        <ele>191</ele>
        <time>2025-04-24T13:56:49.000Z</time>
      </trkpt>
      <trkpt lat="44.25777" lon="0.51415">
        <ele>191</ele>
        <time>2025-04-24T13:56:59.000Z</time>
      </trkpt>
      <trkpt lat="44.25779" lon="0.51427">
        <ele>191</ele>
        <time>2025-04-24T13:57:09.000Z</time>
      </trkpt>
      <trkpt lat="44.25781" lon="0.51441">
        <ele>191</ele>
        <time>2025-04-24T13:57:19.000Z</time>
      </trkpt>
      <trkpt lat="44.25779" lon="0.51454">
        <ele>192</ele>
        <time>2025-04-24T13:57:29.000Z</time>
      </trkpt>
      <trkpt lat="44.25779" lon="0.51467">
        <ele>193</ele>
        <time>2025-04-24T13:57:39.000Z</time>
      </trkpt>
      <trkpt lat="44.25781" lon="0.5148">
        <ele>193</ele>
        <time>2025-04-24T13:57:53.000Z</time>
      </trkpt>
      <trkpt lat="44.25787" lon="0.51489">
        <ele>195</ele>
        <time>2025-04-24T13:58:07.000Z</time>
      </trkpt>
      <trkpt lat="44.25795" lon="0.51495">
        <ele>196</ele>
        <time>2025-04-24T13:58:19.000Z</time>
      </trkpt>
      <trkpt lat="44.25803" lon="0.51503">
        <ele>197</ele>
        <time>2025-04-24T13:58:29.000Z</time>
      </trkpt>
      <trkpt lat="44.2581" lon="0.51512">
        <ele>199</ele>
        <time>2025-04-24T13:58:39.000Z</time>
      </trkpt>
      <trkpt lat="44.25816" lon="0.5152">
        <ele>200</ele>
        <time>2025-04-24T13:58:49.000Z</time>
      </trkpt>
      <trkpt lat="44.25824" lon="0.51527">
        <ele>201</ele>
        <time>2025-04-24T13:59:01.000Z</time>
      </trkpt>
      <trkpt lat="44.25831" lon="0.51536">
        <ele>202</ele>
        <time>2025-04-24T13:59:12.000Z</time>
      </trkpt>
      <trkpt lat="44.25837" lon="0.51545">
        <ele>203</ele>
        <time>2025-04-24T13:59:24.000Z</time>
      </trkpt>
      <trkpt lat="44.25844" lon="0.51555">
        <ele>204</ele>
        <time>2025-04-24T13:59:40.000Z</time>
      </trkpt>
      <trkpt lat="44.25852" lon="0.51563">
        <ele>205</ele>
        <time>2025-04-24T13:59:50.000Z</time>
      </trkpt>
      <trkpt lat="44.25861" lon="0.51567">
        <ele>205</ele>
        <time>2025-04-24T14:00:04.000Z</time>
      </trkpt>
      <trkpt lat="44.25869" lon="0.5157">
        <ele>206</ele>
        <time>2025-04-24T14:00:18.000Z</time>
      </trkpt>
      <trkpt lat="44.25873" lon="0.51581">
        <ele>206</ele>
        <time>2025-04-24T14:04:35.000Z</time>
      </trkpt>
      <trkpt lat="44.25872" lon="0.51594">
        <ele>205</ele>
        <time>2025-04-24T14:04:47.000Z</time>
      </trkpt>
      <trkpt lat="44.25868" lon="0.51606">
        <ele>205</ele>
        <time>2025-04-24T14:04:57.000Z</time>
      </trkpt>
      <trkpt lat="44.25862" lon="0.51617">
        <ele>204</ele>
        <time>2025-04-24T14:05:14.000Z</time>
      </trkpt>
      <trkpt lat="44.25855" lon="0.51626">
        <ele>203</ele>
        <time>2025-04-24T14:05:24.000Z</time>
      </trkpt>
      <trkpt lat="44.25848" lon="0.51634">
        <ele>203</ele>
        <time>2025-04-24T14:05:34.000Z</time>
      </trkpt>
      <trkpt lat="44.2584" lon="0.51643">
        <ele>202</ele>
        <time>2025-04-24T14:05:44.000Z</time>
      </trkpt>
      <trkpt lat="44.25831" lon="0.51651">
        <ele>201</ele>
        <time>2025-04-24T14:05:54.000Z</time>
      </trkpt>
      <trkpt lat="44.25823" lon="0.51659">
        <ele>201</ele>
        <time>2025-04-24T14:06:04.000Z</time>
      </trkpt>
      <trkpt lat="44.25815" lon="0.51665">
        <ele>200</ele>
        <time>2025-04-24T14:06:12.000Z</time>
      </trkpt>
      <trkpt lat="44.25808" lon="0.51673">
        <ele>199</ele>
        <time>2025-04-24T14:06:20.000Z</time>
      </trkpt>
      <trkpt lat="44.258" lon="0.5168">
        <ele>199</ele>
        <time>2025-04-24T14:06:28.000Z</time>
      </trkpt>
      <trkpt lat="44.25793" lon="0.51687">
        <ele>198</ele>
        <time>2025-04-24T14:06:36.000Z</time>
      </trkpt>
      <trkpt lat="44.25787" lon="0.51697">
        <ele>198</ele>
        <time>2025-04-24T14:06:44.000Z</time>
      </trkpt>
      <trkpt lat="44.25781" lon="0.51707">
        <ele>197</ele>
        <time>2025-04-24T14:06:52.000Z</time>
      </trkpt>
      <trkpt lat="44.25773" lon="0.51715">
        <ele>197</ele>
        <time>2025-04-24T14:07:00.000Z</time>
      </trkpt>
      <trkpt lat="44.25766" lon="0.51725">
        <ele>196</ele>
        <time>2025-04-24T14:07:08.000Z</time>
      </trkpt>
      <trkpt lat="44.25759" lon="0.51734">
        <ele>195</ele>
        <time>2025-04-24T14:07:16.000Z</time>
      </trkpt>
      <trkpt lat="44.25751" lon="0.5174">
        <ele>194</ele>
        <time>2025-04-24T14:07:26.000Z</time>
      </trkpt>
      <trkpt lat="44.25743" lon="0.51745">
        <ele>193</ele>
        <time>2025-04-24T14:07:34.000Z</time>
      </trkpt>
      <trkpt lat="44.25734" lon="0.51753">
        <ele>191</ele>
        <time>2025-04-24T14:07:44.000Z</time>
      </trkpt>
      <trkpt lat="44.25726" lon="0.51756">
        <ele>190</ele>
        <time>2025-04-24T14:07:52.000Z</time>
      </trkpt>
      <trkpt lat="44.25717" lon="0.51759">
        <ele>189</ele>
        <time>2025-04-24T14:08:00.000Z</time>
      </trkpt>
      <trkpt lat="44.25708" lon="0.51763">
        <ele>188</ele>
        <time>2025-04-24T14:08:08.000Z</time>
      </trkpt>
      <trkpt lat="44.257" lon="0.51768">
        <ele>187</ele>
        <time>2025-04-24T14:08:16.000Z</time>
      </trkpt>
      <trkpt lat="44.25691" lon="0.51773">
        <ele>186</ele>
        <time>2025-04-24T14:08:24.000Z</time>
      </trkpt>
      <trkpt lat="44.25681" lon="0.51777">
        <ele>185</ele>
        <time>2025-04-24T14:08:32.000Z</time>
      </trkpt>
      <trkpt lat="44.25672" lon="0.5178">
        <ele>183</ele>
        <time>2025-04-24T14:08:42.000Z</time>
      </trkpt>
      <trkpt lat="44.25664" lon="0.51783">
        <ele>181</ele>
        <time>2025-04-24T14:08:50.000Z</time>
      </trkpt>
      <trkpt lat="44.25655" lon="0.51785">
        <ele>179</ele>
        <time>2025-04-24T14:08:58.000Z</time>
      </trkpt>
      <trkpt lat="44.25645" lon="0.51784">
        <ele>177</ele>
        <time>2025-04-24T14:09:08.000Z</time>
      </trkpt>
      <trkpt lat="44.25635" lon="0.51785">
        <ele>170</ele>
        <time>2025-04-24T14:09:20.000Z</time>
      </trkpt>
      <trkpt lat="44.25626" lon="0.51782">
        <ele>162</ele>
        <time>2025-04-24T14:09:30.000Z</time>
      </trkpt>
      <trkpt lat="44.25616" lon="0.5178">
        <ele>153</ele>
        <time>2025-04-24T14:09:42.000Z</time>
      </trkpt>
      <trkpt lat="44.25607" lon="0.5178">
        <ele>144</ele>
        <time>2025-04-24T14:09:52.000Z</time>
      </trkpt>
      <trkpt lat="44.25598" lon="0.51778">
        <ele>140</ele>
        <time>2025-04-24T14:10:52.000Z</time>
      </trkpt>
      <trkpt lat="44.25588" lon="0.51773">
        <ele>137</ele>
        <time>2025-04-24T14:11:08.000Z</time>
      </trkpt>
      <trkpt lat="44.25579" lon="0.51769">
        <ele>135</ele>
        <time>2025-04-24T14:11:26.000Z</time>
      </trkpt>
      <trkpt lat="44.25569" lon="0.51766">
        <ele>133</ele>
        <time>2025-04-24T14:12:39.000Z</time>
      </trkpt>
      <trkpt lat="44.2556" lon="0.51764">
        <ele>133</ele>
        <time>2025-04-24T14:12:47.000Z</time>
      </trkpt>
      <trkpt lat="44.25551" lon="0.51764">
        <ele>132</ele>
        <time>2025-04-24T14:12:59.000Z</time>
      </trkpt>
      <trkpt lat="44.25542" lon="0.51766">
        <ele>131</ele>
        <time>2025-04-24T14:13:07.000Z</time>
      </trkpt>
      <trkpt lat="44.25533" lon="0.51765">
        <ele>131</ele>
        <time>2025-04-24T14:13:17.000Z</time>
      </trkpt>
      <trkpt lat="44.25524" lon="0.51764">
        <ele>130</ele>
        <time>2025-04-24T14:13:25.000Z</time>
      </trkpt>
      <trkpt lat="44.25514" lon="0.51764">
        <ele>130</ele>
        <time>2025-04-24T14:13:33.000Z</time>
      </trkpt>
      <trkpt lat="44.25506" lon="0.51764">
        <ele>130</ele>
        <time>2025-04-24T14:13:41.000Z</time>
      </trkpt>
      <trkpt lat="44.25497" lon="0.51764">
        <ele>130</ele>
        <time>2025-04-24T14:13:49.000Z</time>
      </trkpt>
      <trkpt lat="44.25488" lon="0.51762">
        <ele>130</ele>
        <time>2025-04-24T14:13:57.000Z</time>
      </trkpt>
      <trkpt lat="44.25479" lon="0.51762">
        <ele>130</ele>
        <time>2025-04-24T14:14:05.000Z</time>
      </trkpt>
      <trkpt lat="44.2547" lon="0.51761">
        <ele>130</ele>
        <time>2025-04-24T14:14:13.000Z</time>
      </trkpt>
      <trkpt lat="44.25461" lon="0.51762">
        <ele>130</ele>
        <time>2025-04-24T14:14:22.000Z</time>
      </trkpt>
      <trkpt lat="44.25451" lon="0.51763">
        <ele>130</ele>
        <time>2025-04-24T14:14:30.000Z</time>
      </trkpt>
      <trkpt lat="44.25441" lon="0.51761">
        <ele>130</ele>
        <time>2025-04-24T14:14:38.000Z</time>
      </trkpt>
      <trkpt lat="44.25432" lon="0.51764">
        <ele>130</ele>
        <time>2025-04-24T14:14:46.000Z</time>
      </trkpt>
      <trkpt lat="44.25422" lon="0.51766">
        <ele>130</ele>
        <time>2025-04-24T14:14:54.000Z</time>
      </trkpt>
      <trkpt lat="44.25412" lon="0.51769">
        <ele>130</ele>
        <time>2025-04-24T14:15:04.000Z</time>
      </trkpt>
      <trkpt lat="44.25404" lon="0.51764">
        <ele>130</ele>
        <time>2025-04-24T14:15:14.000Z</time>
      </trkpt>
      <trkpt lat="44.25394" lon="0.51761">
        <ele>130</ele>
        <time>2025-04-24T14:15:22.000Z</time>
      </trkpt>
      <trkpt lat="44.25385" lon="0.51761">
        <ele>130</ele>
        <time>2025-04-24T14:15:30.000Z</time>
      </trkpt>
      <trkpt lat="44.25376" lon="0.51759">
        <ele>130</ele>
        <time>2025-04-24T14:15:38.000Z</time>
      </trkpt>
      <trkpt lat="44.25367" lon="0.51761">
        <ele>129</ele>
        <time>2025-04-24T14:16:00.000Z</time>
      </trkpt>
      <trkpt lat="44.25361" lon="0.5177">
        <ele>128</ele>
        <time>2025-04-24T14:16:06.000Z</time>
      </trkpt>
      <trkpt lat="44.25362" lon="0.51784">
        <ele>127</ele>
        <time>2025-04-24T14:16:12.000Z</time>
      </trkpt>
      <trkpt lat="44.25365" lon="0.51796">
        <ele>126</ele>
        <time>2025-04-24T14:16:18.000Z</time>
      </trkpt>
      <trkpt lat="44.25365" lon="0.5181">
        <ele>125</ele>
        <time>2025-04-24T14:16:26.000Z</time>
      </trkpt>
      <trkpt lat="44.25365" lon="0.51823">
        <ele>125</ele>
        <time>2025-04-24T14:16:34.000Z</time>
      </trkpt>
      <trkpt lat="44.25367" lon="0.51836">
        <ele>124</ele>
        <time>2025-04-24T14:16:42.000Z</time>
      </trkpt>
      <trkpt lat="44.25368" lon="0.5185">
        <ele>124</ele>
        <time>2025-04-24T14:16:50.000Z</time>
      </trkpt>
      <trkpt lat="44.25372" lon="0.51864">
        <ele>124</ele>
        <time>2025-04-24T14:17:00.000Z</time>
      </trkpt>
      <trkpt lat="44.25375" lon="0.51876">
        <ele>124</ele>
        <time>2025-04-24T14:17:08.000Z</time>
      </trkpt>
      <trkpt lat="44.25377" lon="0.51889">
        <ele>124</ele>
        <time>2025-04-24T14:17:16.000Z</time>
      </trkpt>
      <trkpt lat="44.25383" lon="0.51899">
        <ele>124</ele>
        <time>2025-04-24T14:17:24.000Z</time>
      </trkpt>
      <trkpt lat="44.2539" lon="0.51909">
        <ele>124</ele>
        <time>2025-04-24T14:17:33.000Z</time>
      </trkpt>
      <trkpt lat="44.25398" lon="0.5192">
        <ele>124</ele>
        <time>2025-04-24T14:17:41.000Z</time>
      </trkpt>
      <trkpt lat="44.25404" lon="0.51929">
        <ele>124</ele>
        <time>2025-04-24T14:17:49.000Z</time>
      </trkpt>
      <trkpt lat="44.25413" lon="0.51938">
        <ele>124</ele>
        <time>2025-04-24T14:17:59.000Z</time>
      </trkpt>
      <trkpt lat="44.2542" lon="0.51946">
        <ele>124</ele>
        <time>2025-04-24T14:18:09.000Z</time>
      </trkpt>
      <trkpt lat="44.25427" lon="0.51954">
        <ele>124</ele>
        <time>2025-04-24T14:18:17.000Z</time>
      </trkpt>
      <trkpt lat="44.25435" lon="0.51962">
        <ele>124</ele>
        <time>2025-04-24T14:18:25.000Z</time>
      </trkpt>
      <trkpt lat="44.25443" lon="0.5197">
        <ele>124</ele>
        <time>2025-04-24T14:18:33.000Z</time>
      </trkpt>
      <trkpt lat="44.25449" lon="0.51979">
        <ele>124</ele>
        <time>2025-04-24T14:18:41.000Z</time>
      </trkpt>
      <trkpt lat="44.25456" lon="0.51987">
        <ele>124</ele>
        <time>2025-04-24T14:18:49.000Z</time>
      </trkpt>
      <trkpt lat="44.25464" lon="0.51995">
        <ele>124</ele>
        <time>2025-04-24T14:18:55.000Z</time>
      </trkpt>
      <trkpt lat="44.25472" lon="0.52003">
        <ele>124</ele>
        <time>2025-04-24T14:19:03.000Z</time>
      </trkpt>
      <trkpt lat="44.2548" lon="0.52011">
        <ele>124</ele>
        <time>2025-04-24T14:19:13.000Z</time>
      </trkpt>
      <trkpt lat="44.25487" lon="0.5202">
        <ele>124</ele>
        <time>2025-04-24T14:19:23.000Z</time>
      </trkpt>
      <trkpt lat="44.25491" lon="0.52031">
        <ele>124</ele>
        <time>2025-04-24T14:19:31.000Z</time>
      </trkpt>
      <trkpt lat="44.25497" lon="0.52042">
        <ele>124</ele>
        <time>2025-04-24T14:19:39.000Z</time>
      </trkpt>
      <trkpt lat="44.25501" lon="0.52053">
        <ele>124</ele>
        <time>2025-04-24T14:19:47.000Z</time>
      </trkpt>
      <trkpt lat="44.25507" lon="0.52062">
        <ele>124</ele>
        <time>2025-04-24T14:19:57.000Z</time>
      </trkpt>
      <trkpt lat="44.25512" lon="0.52075">
        <ele>124</ele>
        <time>2025-04-24T14:20:05.000Z</time>
      </trkpt>
      <trkpt lat="44.25517" lon="0.52085">
        <ele>124</ele>
        <time>2025-04-24T14:20:15.000Z</time>
      </trkpt>
      <trkpt lat="44.25526" lon="0.52086">
        <ele>124</ele>
        <time>2025-04-24T14:20:29.000Z</time>
      </trkpt>
      <trkpt lat="44.25534" lon="0.52085">
        <ele>124</ele>
        <time>2025-04-24T14:20:35.000Z</time>
      </trkpt>
      <trkpt lat="44.25543" lon="0.52088">
        <ele>125</ele>
        <time>2025-04-24T14:20:43.000Z</time>
      </trkpt>
      <trkpt lat="44.25552" lon="0.52087">
        <ele>125</ele>
        <time>2025-04-24T14:20:54.000Z</time>
      </trkpt>
      <trkpt lat="44.25561" lon="0.52091">
        <ele>126</ele>
        <time>2025-04-24T14:21:01.000Z</time>
      </trkpt>
      <trkpt lat="44.25571" lon="0.52093">
        <ele>127</ele>
        <time>2025-04-24T14:21:09.000Z</time>
      </trkpt>
      <trkpt lat="44.25581" lon="0.52092">
        <ele>127</ele>
        <time>2025-04-24T14:21:19.000Z</time>
      </trkpt>
      <trkpt lat="44.25589" lon="0.52087">
        <ele>127</ele>
        <time>2025-04-24T14:21:27.000Z</time>
      </trkpt>
      <trkpt lat="44.25598" lon="0.52081">
        <ele>127</ele>
        <time>2025-04-24T14:21:35.000Z</time>
      </trkpt>
      <trkpt lat="44.25606" lon="0.52077">
        <ele>127</ele>
        <time>2025-04-24T14:21:43.000Z</time>
      </trkpt>
      <trkpt lat="44.25615" lon="0.52077">
        <ele>127</ele>
        <time>2025-04-24T14:21:51.000Z</time>
      </trkpt>
      <trkpt lat="44.25624" lon="0.52079">
        <ele>127</ele>
        <time>2025-04-24T14:21:59.000Z</time>
      </trkpt>
      <trkpt lat="44.25634" lon="0.52081">
        <ele>127</ele>
        <time>2025-04-24T14:22:09.000Z</time>
      </trkpt>
      <trkpt lat="44.25643" lon="0.52078">
        <ele>127</ele>
        <time>2025-04-24T14:22:19.000Z</time>
      </trkpt>
      <trkpt lat="44.25652" lon="0.52079">
        <ele>127</ele>
        <time>2025-04-24T14:22:51.000Z</time>
      </trkpt>
      <trkpt lat="44.25659" lon="0.52084">
        <ele>127</ele>
        <time>2025-04-24T14:23:05.000Z</time>
      </trkpt>
      <trkpt lat="44.25668" lon="0.52093">
        <ele>127</ele>
        <time>2025-04-24T14:23:13.000Z</time>
      </trkpt>
      <trkpt lat="44.25673" lon="0.52105">
        <ele>127</ele>
        <time>2025-04-24T14:23:23.000Z</time>
      </trkpt>
      <trkpt lat="44.25675" lon="0.52118">
        <ele>127</ele>
        <time>2025-04-24T14:23:29.000Z</time>
      </trkpt>
      <trkpt lat="44.25679" lon="0.52129">
        <ele>127</ele>
        <time>2025-04-24T14:23:39.000Z</time>
      </trkpt>
      <trkpt lat="44.25683" lon="0.52141">
        <ele>127</ele>
        <time>2025-04-24T14:23:49.000Z</time>
      </trkpt>
      <trkpt lat="44.25687" lon="0.52153">
        <ele>127</ele>
        <time>2025-04-24T14:23:59.000Z</time>
      </trkpt>
      <trkpt lat="44.25692" lon="0.52164">
        <ele>127</ele>
        <time>2025-04-24T14:24:09.000Z</time>
      </trkpt>
      <trkpt lat="44.25697" lon="0.52174">
        <ele>127</ele>
        <time>2025-04-24T14:24:21.000Z</time>
      </trkpt>
      <trkpt lat="44.25705" lon="0.52182">
        <ele>127</ele>
        <time>2025-04-24T14:24:30.000Z</time>
      </trkpt>
      <trkpt lat="44.2571" lon="0.52193">
        <ele>127</ele>
        <time>2025-04-24T14:24:39.000Z</time>
      </trkpt>
      <trkpt lat="44.25715" lon="0.52205">
        <ele>127</ele>
        <time>2025-04-24T14:24:49.000Z</time>
      </trkpt>
      <trkpt lat="44.25719" lon="0.52217">
        <ele>127</ele>
        <time>2025-04-24T14:24:59.000Z</time>
      </trkpt>
      <trkpt lat="44.25725" lon="0.52228">
        <ele>127</ele>
        <time>2025-04-24T14:25:09.000Z</time>
      </trkpt>
      <trkpt lat="44.25729" lon="0.5224">
        <ele>128</ele>
        <time>2025-04-24T14:25:19.000Z</time>
      </trkpt>
      <trkpt lat="44.25734" lon="0.52251">
        <ele>129</ele>
        <time>2025-04-24T14:25:29.000Z</time>
      </trkpt>
      <trkpt lat="44.25739" lon="0.52262">
        <ele>130</ele>
        <time>2025-04-24T14:25:39.000Z</time>
      </trkpt>
      <trkpt lat="44.25744" lon="0.52274">
        <ele>130</ele>
        <time>2025-04-24T14:25:51.000Z</time>
      </trkpt>
      <trkpt lat="44.2575" lon="0.52285">
        <ele>130</ele>
        <time>2025-04-24T14:26:03.000Z</time>
      </trkpt>
      <trkpt lat="44.25755" lon="0.52295">
        <ele>131</ele>
        <time>2025-04-24T14:26:17.000Z</time>
      </trkpt>
      <trkpt lat="44.25761" lon="0.52303">
        <ele>132</ele>
        <time>2025-04-24T14:26:25.000Z</time>
      </trkpt>
      <trkpt lat="44.2577" lon="0.52308">
        <ele>133</ele>
        <time>2025-04-24T14:26:37.000Z</time>
      </trkpt>
      <trkpt lat="44.25778" lon="0.52312">
        <ele>135</ele>
        <time>2025-04-24T14:26:49.000Z</time>
      </trkpt>
      <trkpt lat="44.25788" lon="0.52312">
        <ele>137</ele>
        <time>2025-04-24T14:27:07.000Z</time>
      </trkpt>
      <trkpt lat="44.25798" lon="0.52311">
        <ele>138</ele>
        <time>2025-04-24T14:27:17.000Z</time>
      </trkpt>
      <trkpt lat="44.25808" lon="0.52312">
        <ele>139</ele>
        <time>2025-04-24T14:27:29.000Z</time>
      </trkpt>
      <trkpt lat="44.25816" lon="0.52314">
        <ele>139</ele>
        <time>2025-04-24T14:27:39.000Z</time>
      </trkpt>
      <trkpt lat="44.25824" lon="0.5232">
        <ele>140</ele>
        <time>2025-04-24T14:27:49.000Z</time>
      </trkpt>
      <trkpt lat="44.25833" lon="0.52327">
        <ele>145</ele>
        <time>2025-04-24T14:28:01.000Z</time>
      </trkpt>
      <trkpt lat="44.2584" lon="0.52334">
        <ele>150</ele>
        <time>2025-04-24T14:28:11.000Z</time>
      </trkpt>
      <trkpt lat="44.25846" lon="0.52343">
        <ele>155</ele>
        <time>2025-04-24T14:28:21.000Z</time>
      </trkpt>
      <trkpt lat="44.25853" lon="0.52353">
        <ele>157</ele>
        <time>2025-04-24T14:28:33.000Z</time>
      </trkpt>
      <trkpt lat="44.25858" lon="0.52365">
        <ele>156</ele>
        <time>2025-04-24T14:28:45.000Z</time>
      </trkpt>
      <trkpt lat="44.25864" lon="0.52376">
        <ele>155</ele>
        <time>2025-04-24T14:28:57.000Z</time>
      </trkpt>
      <trkpt lat="44.25871" lon="0.52386">
        <ele>152</ele>
        <time>2025-04-24T14:29:25.000Z</time>
      </trkpt>
      <trkpt lat="44.25879" lon="0.52393">
        <ele>152</ele>
        <time>2025-04-24T14:31:27.000Z</time>
      </trkpt>
      <trkpt lat="44.25889" lon="0.52396">
        <ele>151</ele>
        <time>2025-04-24T14:31:37.000Z</time>
      </trkpt>
      <trkpt lat="44.25899" lon="0.52396">
        <ele>150</ele>
        <time>2025-04-24T14:31:47.000Z</time>
      </trkpt>
      <trkpt lat="44.25908" lon="0.524">
        <ele>149</ele>
        <time>2025-04-24T14:31:57.000Z</time>
      </trkpt>
      <trkpt lat="44.25917" lon="0.52405">
        <ele>148</ele>
        <time>2025-04-24T14:32:09.000Z</time>
      </trkpt>
      <trkpt lat="44.25927" lon="0.5241">
        <ele>151</ele>
        <time>2025-04-24T14:32:21.000Z</time>
      </trkpt>
      <trkpt lat="44.25937" lon="0.52412">
        <ele>155</ele>
        <time>2025-04-24T14:32:31.000Z</time>
      </trkpt>
      <trkpt lat="44.25947" lon="0.52412">
        <ele>159</ele>
        <time>2025-04-24T14:32:39.000Z</time>
      </trkpt>
      <trkpt lat="44.25956" lon="0.52413">
        <ele>164</ele>
        <time>2025-04-24T14:32:47.000Z</time>
      </trkpt>
      <trkpt lat="44.25965" lon="0.52416">
        <ele>166</ele>
        <time>2025-04-24T14:32:55.000Z</time>
      </trkpt>
      <trkpt lat="44.25972" lon="0.52422">
        <ele>168</ele>
        <time>2025-04-24T14:33:03.000Z</time>
      </trkpt>
      <trkpt lat="44.25975" lon="0.52433">
        <ele>169</ele>
        <time>2025-04-24T14:33:13.000Z</time>
      </trkpt>
      <trkpt lat="44.25978" lon="0.52445">
        <ele>170</ele>
        <time>2025-04-24T14:33:23.000Z</time>
      </trkpt>
      <trkpt lat="44.25983" lon="0.52456">
        <ele>171</ele>
        <time>2025-04-24T14:33:33.000Z</time>
      </trkpt>
      <trkpt lat="44.25988" lon="0.52467">
        <ele>172</ele>
        <time>2025-04-24T14:33:43.000Z</time>
      </trkpt>
      <trkpt lat="44.25993" lon="0.5248">
        <ele>172</ele>
        <time>2025-04-24T14:33:53.000Z</time>
      </trkpt>
      <trkpt lat="44.25995" lon="0.52493">
        <ele>173</ele>
        <time>2025-04-24T14:34:03.000Z</time>
      </trkpt>
      <trkpt lat="44.25997" lon="0.52506">
        <ele>170</ele>
        <time>2025-04-24T14:34:13.000Z</time>
      </trkpt>
      <trkpt lat="44.25999" lon="0.5252">
        <ele>168</ele>
        <time>2025-04-24T14:34:21.000Z</time>
      </trkpt>
      <trkpt lat="44.26003" lon="0.52532">
        <ele>165</ele>
        <time>2025-04-24T14:34:29.000Z</time>
      </trkpt>
      <trkpt lat="44.26006" lon="0.52545">
        <ele>162</ele>
        <time>2025-04-24T14:34:39.000Z</time>
      </trkpt>
      <trkpt lat="44.26012" lon="0.52557">
        <ele>162</ele>
        <time>2025-04-24T14:34:49.000Z</time>
      </trkpt>
      <trkpt lat="44.2602" lon="0.52562">
        <ele>162</ele>
        <time>2025-04-24T14:34:57.000Z</time>
      </trkpt>
      <trkpt lat="44.26028" lon="0.52558">
        <ele>162</ele>
        <time>2025-04-24T14:35:05.000Z</time>
      </trkpt>
      <trkpt lat="44.26036" lon="0.52552">
        <ele>164</ele>
        <time>2025-04-24T14:35:16.000Z</time>
      </trkpt>
      <trkpt lat="44.26043" lon="0.52544">
        <ele>166</ele>
        <time>2025-04-24T14:35:32.000Z</time>
      </trkpt>
      <trkpt lat="44.26044" lon="0.52532">
        <ele>168</ele>
        <time>2025-04-24T14:35:48.000Z</time>
      </trkpt>
      <trkpt lat="44.26044" lon="0.52517">
        <ele>170</ele>
        <time>2025-04-24T14:36:00.000Z</time>
      </trkpt>
      <trkpt lat="44.26044" lon="0.52505">
        <ele>171</ele>
        <time>2025-04-24T14:36:12.000Z</time>
      </trkpt>
      <trkpt lat="44.26047" lon="0.52493">
        <ele>172</ele>
        <time>2025-04-24T14:36:20.000Z</time>
      </trkpt>
      <trkpt lat="44.2605" lon="0.52481">
        <ele>173</ele>
        <time>2025-04-24T14:36:29.000Z</time>
      </trkpt>
      <trkpt lat="44.26054" lon="0.52469">
        <ele>173</ele>
        <time>2025-04-24T14:36:39.000Z</time>
      </trkpt>
      <trkpt lat="44.26062" lon="0.52462">
        <ele>174</ele>
        <time>2025-04-24T14:36:51.000Z</time>
      </trkpt>
      <trkpt lat="44.2607" lon="0.52457">
        <ele>174</ele>
        <time>2025-04-24T14:37:01.000Z</time>
      </trkpt>
      <trkpt lat="44.26075" lon="0.52447">
        <ele>174</ele>
        <time>2025-04-24T14:37:11.000Z</time>
      </trkpt>
      <trkpt lat="44.26079" lon="0.52436">
        <ele>174</ele>
        <time>2025-04-24T14:37:23.000Z</time>
      </trkpt>
      <trkpt lat="44.26078" lon="0.52423">
        <ele>175</ele>
        <time>2025-04-24T14:37:35.000Z</time>
      </trkpt>
      <trkpt lat="44.26077" lon="0.5241">
        <ele>175</ele>
        <time>2025-04-24T14:37:47.000Z</time>
      </trkpt>
      <trkpt lat="44.26076" lon="0.52397">
        <ele>175</ele>
        <time>2025-04-24T14:37:57.000Z</time>
      </trkpt>
      <trkpt lat="44.26075" lon="0.52385">
        <ele>175</ele>
        <time>2025-04-24T14:38:07.000Z</time>
      </trkpt>
      <trkpt lat="44.26076" lon="0.52371">
        <ele>175</ele>
        <time>2025-04-24T14:38:17.000Z</time>
      </trkpt>
      <trkpt lat="44.26078" lon="0.52357">
        <ele>175</ele>
        <time>2025-04-24T14:38:27.000Z</time>
      </trkpt>
      <trkpt lat="44.26081" lon="0.52346">
        <ele>177</ele>
        <time>2025-04-24T14:38:35.000Z</time>
      </trkpt>
      <trkpt lat="44.26084" lon="0.52334">
        <ele>179</ele>
        <time>2025-04-24T14:38:42.000Z</time>
      </trkpt>
      <trkpt lat="44.26086" lon="0.52322">
        <ele>182</ele>
        <time>2025-04-24T14:38:50.000Z</time>
      </trkpt>
      <trkpt lat="44.26089" lon="0.52309">
        <ele>185</ele>
        <time>2025-04-24T14:39:00.000Z</time>
      </trkpt>
      <trkpt lat="44.26092" lon="0.52297">
        <ele>187</ele>
        <time>2025-04-24T14:39:09.000Z</time>
      </trkpt>
      <trkpt lat="44.26096" lon="0.52284">
        <ele>189</ele>
        <time>2025-04-24T14:39:19.000Z</time>
      </trkpt>
      <trkpt lat="44.26097" lon="0.52272">
        <ele>190</ele>
        <time>2025-04-24T14:39:29.000Z</time>
      </trkpt>
      <trkpt lat="44.261" lon="0.52259">
        <ele>192</ele>
        <time>2025-04-24T14:39:41.000Z</time>
      </trkpt>
      <trkpt lat="44.26102" lon="0.52247">
        <ele>193</ele>
        <time>2025-04-24T14:39:51.000Z</time>
      </trkpt>
      <trkpt lat="44.26103" lon="0.52235">
        <ele>195</ele>
        <time>2025-04-24T14:40:01.000Z</time>
      </trkpt>
      <trkpt lat="44.26106" lon="0.52223">
        <ele>196</ele>
        <time>2025-04-24T14:40:11.000Z</time>
      </trkpt>
      <trkpt lat="44.26109" lon="0.52211">
        <ele>198</ele>
        <time>2025-04-24T14:40:21.000Z</time>
      </trkpt>
      <trkpt lat="44.26112" lon="0.52198">
        <ele>199</ele>
        <time>2025-04-24T14:40:31.000Z</time>
      </trkpt>
      <trkpt lat="44.26116" lon="0.52185">
        <ele>200</ele>
        <time>2025-04-24T14:40:41.000Z</time>
      </trkpt>
      <trkpt lat="44.2612" lon="0.52172">
        <ele>201</ele>
        <time>2025-04-24T14:40:51.000Z</time>
      </trkpt>
      <trkpt lat="44.26126" lon="0.52161">
        <ele>202</ele>
        <time>2025-04-24T14:41:01.000Z</time>
      </trkpt>
      <trkpt lat="44.26132" lon="0.5215">
        <ele>202</ele>
        <time>2025-04-24T14:41:11.000Z</time>
      </trkpt>
      <trkpt lat="44.26139" lon="0.5214">
        <ele>203</ele>
        <time>2025-04-24T14:41:23.000Z</time>
      </trkpt>
      <trkpt lat="44.26146" lon="0.52132">
        <ele>205</ele>
        <time>2025-04-24T14:41:35.000Z</time>
      </trkpt>
      <trkpt lat="44.26153" lon="0.52124">
        <ele>206</ele>
        <time>2025-04-24T14:41:45.000Z</time>
      </trkpt>
      <trkpt lat="44.26161" lon="0.52117">
        <ele>208</ele>
        <time>2025-04-24T14:41:55.000Z</time>
      </trkpt>
      <trkpt lat="44.26169" lon="0.5211">
        <ele>209</ele>
        <time>2025-04-24T14:42:07.000Z</time>
      </trkpt>
      <trkpt lat="44.26174" lon="0.52099">
        <ele>210</ele>
        <time>2025-04-24T14:42:19.000Z</time>
      </trkpt>
      <trkpt lat="44.26179" lon="0.52088">
        <ele>211</ele>
        <time>2025-04-24T14:42:29.000Z</time>
      </trkpt>
      <trkpt lat="44.26181" lon="0.52075">
        <ele>212</ele>
        <time>2025-04-24T14:42:38.000Z</time>
      </trkpt>
      <trkpt lat="44.26182" lon="0.52062">
        <ele>213</ele>
        <time>2025-04-24T14:42:48.000Z</time>
      </trkpt>
      <trkpt lat="44.26186" lon="0.5205">
        <ele>213</ele>
        <time>2025-04-24T14:43:08.000Z</time>
      </trkpt>
      <trkpt lat="44.2619" lon="0.52041">
        <ele>213</ele>
        <time>2025-04-24T14:43:18.000Z</time>
      </trkpt>
      <trkpt lat="44.26199" lon="0.5204">
        <ele>213</ele>
        <time>2025-04-24T14:43:32.000Z</time>
      </trkpt>
      <trkpt lat="44.26209" lon="0.52039">
        <ele>212</ele>
        <time>2025-04-24T14:43:42.000Z</time>
      </trkpt>
      <trkpt lat="44.26218" lon="0.52041">
        <ele>212</ele>
        <time>2025-04-24T14:43:58.000Z</time>
      </trkpt>
      <trkpt lat="44.26228" lon="0.52043">
        <ele>211</ele>
        <time>2025-04-24T14:44:08.000Z</time>
      </trkpt>
      <trkpt lat="44.26236" lon="0.52045">
        <ele>210</ele>
        <time>2025-04-24T14:44:16.000Z</time>
      </trkpt>
      <trkpt lat="44.26245" lon="0.52045">
        <ele>210</ele>
        <time>2025-04-24T14:44:24.000Z</time>
      </trkpt>
      <trkpt lat="44.26254" lon="0.52043">
        <ele>209</ele>
        <time>2025-04-24T14:44:34.000Z</time>
      </trkpt>
      <trkpt lat="44.26263" lon="0.52041">
        <ele>209</ele>
        <time>2025-04-24T14:44:52.000Z</time>
      </trkpt>
      <trkpt lat="44.26272" lon="0.52039">
        <ele>210</ele>
        <time>2025-04-24T14:45:02.000Z</time>
      </trkpt>
      <trkpt lat="44.26281" lon="0.52035">
        <ele>210</ele>
        <time>2025-04-24T14:45:16.000Z</time>
      </trkpt>
      <trkpt lat="44.2629" lon="0.52033">
        <ele>210</ele>
        <time>2025-04-24T14:45:24.000Z</time>
      </trkpt>
      <trkpt lat="44.26299" lon="0.52033">
        <ele>210</ele>
        <time>2025-04-24T14:46:02.000Z</time>
      </trkpt>
      <trkpt lat="44.26306" lon="0.52025">
        <ele>210</ele>
        <time>2025-04-24T14:46:14.000Z</time>
      </trkpt>
      <trkpt lat="44.26314" lon="0.52019">
        <ele>209</ele>
        <time>2025-04-24T14:46:22.000Z</time>
      </trkpt>
      <trkpt lat="44.26321" lon="0.52012">
        <ele>208</ele>
        <time>2025-04-24T14:46:44.000Z</time>
      </trkpt>
      <trkpt lat="44.2633" lon="0.52006">
        <ele>207</ele>
        <time>2025-04-24T14:46:56.000Z</time>
      </trkpt>
      <trkpt lat="44.26338" lon="0.52">
        <ele>205</ele>
        <time>2025-04-24T14:47:04.000Z</time>
      </trkpt>
      <trkpt lat="44.26348" lon="0.51994">
        <ele>204</ele>
        <time>2025-04-24T14:47:22.000Z</time>
      </trkpt>
      <trkpt lat="44.26358" lon="0.51991">
        <ele>203</ele>
        <time>2025-04-24T14:47:34.000Z</time>
      </trkpt>
      <trkpt lat="44.26367" lon="0.51989">
        <ele>202</ele>
        <time>2025-04-24T14:47:44.000Z</time>
      </trkpt>
      <trkpt lat="44.26377" lon="0.51986">
        <ele>202</ele>
        <time>2025-04-24T14:47:54.000Z</time>
      </trkpt>
      <trkpt lat="44.26386" lon="0.51986">
        <ele>201</ele>
        <time>2025-04-24T14:48:06.000Z</time>
      </trkpt>
      <trkpt lat="44.26395" lon="0.51984">
        <ele>201</ele>
        <time>2025-04-24T14:48:20.000Z</time>
      </trkpt>
      <trkpt lat="44.26404" lon="0.51985">
        <ele>201</ele>
        <time>2025-04-24T14:48:30.000Z</time>
      </trkpt>
      <trkpt lat="44.26413" lon="0.51987">
        <ele>201</ele>
        <time>2025-04-24T14:48:38.000Z</time>
      </trkpt>
      <trkpt lat="44.26423" lon="0.51987">
        <ele>201</ele>
        <time>2025-04-24T14:48:48.000Z</time>
      </trkpt>
      <trkpt lat="44.26432" lon="0.51985">
        <ele>199</ele>
        <time>2025-04-24T14:49:00.000Z</time>
      </trkpt>
      <trkpt lat="44.26442" lon="0.51986">
        <ele>199</ele>
        <time>2025-04-24T14:49:18.000Z</time>
      </trkpt>
      <trkpt lat="44.26452" lon="0.51989">
        <ele>199</ele>
        <time>2025-04-24T14:49:30.000Z</time>
      </trkpt>
      <trkpt lat="44.26462" lon="0.5199">
        <ele>197</ele>
        <time>2025-04-24T14:49:40.000Z</time>
      </trkpt>
      <trkpt lat="44.26471" lon="0.51988">
        <ele>196</ele>
        <time>2025-04-24T14:49:58.000Z</time>
      </trkpt>
      <trkpt lat="44.2648" lon="0.51988">
        <ele>194</ele>
        <time>2025-04-24T14:50:06.000Z</time>
      </trkpt>
      <trkpt lat="44.26489" lon="0.51989">
        <ele>194</ele>
        <time>2025-04-24T14:50:14.000Z</time>
      </trkpt>
      <trkpt lat="44.26499" lon="0.51993">
        <ele>194</ele>
        <time>2025-04-24T14:50:24.000Z</time>
      </trkpt>
      <trkpt lat="44.26508" lon="0.51994">
        <ele>196</ele>
        <time>2025-04-24T14:50:36.000Z</time>
      </trkpt>
      <trkpt lat="44.26516" lon="0.52">
        <ele>197</ele>
        <time>2025-04-24T14:50:48.000Z</time>
      </trkpt>
      <trkpt lat="44.26525" lon="0.52004">
        <ele>198</ele>
        <time>2025-04-24T14:51:00.000Z</time>
      </trkpt>
      <trkpt lat="44.26535" lon="0.52004">
        <ele>200</ele>
        <time>2025-04-24T14:51:10.000Z</time>
      </trkpt>
      <trkpt lat="44.26544" lon="0.51999">
        <ele>201</ele>
        <time>2025-04-24T14:51:32.000Z</time>
      </trkpt>
      <trkpt lat="44.26552" lon="0.51994">
        <ele>203</ele>
        <time>2025-04-24T14:51:46.000Z</time>
      </trkpt>
      <trkpt lat="44.26562" lon="0.51989">
        <ele>204</ele>
        <time>2025-04-24T14:52:02.000Z</time>
      </trkpt>
      <trkpt lat="44.26571" lon="0.51987">
        <ele>204</ele>
        <time>2025-04-24T14:52:10.000Z</time>
      </trkpt>
      <trkpt lat="44.2658" lon="0.51984">
        <ele>206</ele>
        <time>2025-04-24T14:52:20.000Z</time>
      </trkpt>
      <trkpt lat="44.2659" lon="0.51982">
        <ele>207</ele>
        <time>2025-04-24T14:52:32.000Z</time>
      </trkpt>
      <trkpt lat="44.26601" lon="0.51979">
        <ele>209</ele>
        <time>2025-04-24T14:52:42.000Z</time>
      </trkpt>
      <trkpt lat="44.26611" lon="0.51976">
        <ele>210</ele>
        <time>2025-04-24T14:52:52.000Z</time>
      </trkpt>
      <trkpt lat="44.26621" lon="0.51973">
        <ele>211</ele>
        <time>2025-04-24T14:53:02.000Z</time>
      </trkpt>
      <trkpt lat="44.26631" lon="0.51971">
        <ele>211</ele>
        <time>2025-04-24T14:53:12.000Z</time>
      </trkpt>
      <trkpt lat="44.26639" lon="0.51969">
        <ele>212</ele>
        <time>2025-04-24T14:53:22.000Z</time>
      </trkpt>
      <trkpt lat="44.26648" lon="0.51966">
        <ele>212</ele>
        <time>2025-04-24T14:53:32.000Z</time>
      </trkpt>
      <trkpt lat="44.26657" lon="0.51963">
        <ele>212</ele>
        <time>2025-04-24T14:53:42.000Z</time>
      </trkpt>
      <trkpt lat="44.26666" lon="0.51963">
        <ele>212</ele>
        <time>2025-04-24T14:53:54.000Z</time>
      </trkpt>
      <trkpt lat="44.26674" lon="0.51969">
        <ele>210</ele>
        <time>2025-04-24T14:54:02.000Z</time>
      </trkpt>
      <trkpt lat="44.26681" lon="0.51976">
        <ele>208</ele>
        <time>2025-04-24T14:54:13.000Z</time>
      </trkpt>
      <trkpt lat="44.2669" lon="0.51985">
        <ele>206</ele>
        <time>2025-04-24T14:54:23.000Z</time>
      </trkpt>
      <trkpt lat="44.26695" lon="0.51995">
        <ele>205</ele>
        <time>2025-04-24T14:54:31.000Z</time>
      </trkpt>
      <trkpt lat="44.267" lon="0.52005">
        <ele>204</ele>
        <time>2025-04-24T14:54:41.000Z</time>
      </trkpt>
      <trkpt lat="44.26705" lon="0.52018">
        <ele>203</ele>
        <time>2025-04-24T14:54:49.000Z</time>
      </trkpt>
      <trkpt lat="44.26708" lon="0.5203">
        <ele>202</ele>
        <time>2025-04-24T14:54:57.000Z</time>
      </trkpt>
      <trkpt lat="44.26714" lon="0.5204">
        <ele>202</ele>
        <time>2025-04-24T14:55:05.000Z</time>
      </trkpt>
      <trkpt lat="44.26721" lon="0.52049">
        <ele>201</ele>
        <time>2025-04-24T14:55:14.000Z</time>
      </trkpt>
      <trkpt lat="44.26728" lon="0.52057">
        <ele>201</ele>
        <time>2025-04-24T14:55:22.000Z</time>
      </trkpt>
      <trkpt lat="44.26734" lon="0.52067">
        <ele>201</ele>
        <time>2025-04-24T14:55:32.000Z</time>
      </trkpt>
      <trkpt lat="44.2674" lon="0.52079">
        <ele>201</ele>
        <time>2025-04-24T14:55:42.000Z</time>
      </trkpt>
      <trkpt lat="44.26746" lon="0.52088">
        <ele>201</ele>
        <time>2025-04-24T14:55:51.000Z</time>
      </trkpt>
      <trkpt lat="44.26753" lon="0.52097">
        <ele>201</ele>
        <time>2025-04-24T14:55:59.000Z</time>
      </trkpt>
      <trkpt lat="44.26758" lon="0.52107">
        <ele>201</ele>
        <time>2025-04-24T14:56:07.000Z</time>
      </trkpt>
      <trkpt lat="44.26763" lon="0.52119">
        <ele>201</ele>
        <time>2025-04-24T14:56:17.000Z</time>
      </trkpt>
      <trkpt lat="44.26769" lon="0.5213">
        <ele>201</ele>
        <time>2025-04-24T14:56:25.000Z</time>
      </trkpt>
      <trkpt lat="44.26774" lon="0.52142">
        <ele>201</ele>
        <time>2025-04-24T14:56:35.000Z</time>
      </trkpt>
      <trkpt lat="44.26779" lon="0.52153">
        <ele>201</ele>
        <time>2025-04-24T14:56:45.000Z</time>
      </trkpt>
      <trkpt lat="44.26785" lon="0.52164">
        <ele>201</ele>
        <time>2025-04-24T14:56:53.000Z</time>
      </trkpt>
      <trkpt lat="44.26791" lon="0.52174">
        <ele>201</ele>
        <time>2025-04-24T14:57:01.000Z</time>
      </trkpt>
      <trkpt lat="44.26795" lon="0.52184">
        <ele>201</ele>
        <time>2025-04-24T14:57:09.000Z</time>
      </trkpt>
      <trkpt lat="44.26801" lon="0.52191">
        <ele>201</ele>
        <time>2025-04-24T14:57:19.000Z</time>
      </trkpt>
      <trkpt lat="44.26807" lon="0.52183">
        <ele>201</ele>
        <time>2025-04-24T14:57:33.000Z</time>
      </trkpt>
      <trkpt lat="44.26811" lon="0.52171">
        <ele>201</ele>
        <time>2025-04-24T14:57:41.000Z</time>
      </trkpt>
      <trkpt lat="44.26813" lon="0.52159">
        <ele>201</ele>
        <time>2025-04-24T14:57:49.000Z</time>
      </trkpt>
      <trkpt lat="44.26817" lon="0.52147">
        <ele>201</ele>
        <time>2025-04-24T14:57:59.000Z</time>
      </trkpt>
      <trkpt lat="44.26826" lon="0.52144">
        <ele>201</ele>
        <time>2025-04-24T14:58:11.000Z</time>
      </trkpt>
      <trkpt lat="44.26835" lon="0.52148">
        <ele>201</ele>
        <time>2025-04-24T14:58:21.000Z</time>
      </trkpt>
      <trkpt lat="44.26842" lon="0.52157">
        <ele>201</ele>
        <time>2025-04-24T14:58:27.000Z</time>
      </trkpt>
      <trkpt lat="44.26848" lon="0.52167">
        <ele>201</ele>
        <time>2025-04-24T14:58:35.000Z</time>
      </trkpt>
      <trkpt lat="44.26856" lon="0.52173">
        <ele>201</ele>
        <time>2025-04-24T14:58:45.000Z</time>
      </trkpt>
      <trkpt lat="44.26865" lon="0.52176">
        <ele>201</ele>
        <time>2025-04-24T14:58:53.000Z</time>
      </trkpt>
      <trkpt lat="44.26876" lon="0.52177">
        <ele>201</ele>
        <time>2025-04-24T14:59:03.000Z</time>
      </trkpt>
      <trkpt lat="44.26885" lon="0.52178">
        <ele>201</ele>
        <time>2025-04-24T14:59:11.000Z</time>
      </trkpt>
      <trkpt lat="44.26896" lon="0.5218">
        <ele>201</ele>
        <time>2025-04-24T14:59:24.000Z</time>
      </trkpt>
      <trkpt lat="44.26906" lon="0.52181">
        <ele>201</ele>
        <time>2025-04-24T14:59:34.000Z</time>
      </trkpt>
      <trkpt lat="44.26917" lon="0.52181">
        <ele>201</ele>
        <time>2025-04-24T14:59:42.000Z</time>
      </trkpt>
      <trkpt lat="44.26926" lon="0.52179">
        <ele>201</ele>
        <time>2025-04-24T14:59:50.000Z</time>
      </trkpt>
      <trkpt lat="44.26935" lon="0.5218">
        <ele>201</ele>
        <time>2025-04-24T15:00:02.000Z</time>
      </trkpt>
      <trkpt lat="44.26944" lon="0.52182">
        <ele>201</ele>
        <time>2025-04-24T15:00:10.000Z</time>
      </trkpt>
      <trkpt lat="44.26954" lon="0.52181">
        <ele>201</ele>
        <time>2025-04-24T15:00:18.000Z</time>
      </trkpt>
      <trkpt lat="44.26964" lon="0.52183">
        <ele>201</ele>
        <time>2025-04-24T15:00:28.000Z</time>
      </trkpt>
      <trkpt lat="44.26973" lon="0.5218">
        <ele>201</ele>
        <time>2025-04-24T15:00:38.000Z</time>
      </trkpt>
      <trkpt lat="44.26981" lon="0.52175">
        <ele>201</ele>
        <time>2025-04-24T15:00:46.000Z</time>
      </trkpt>
      <trkpt lat="44.2699" lon="0.52172">
        <ele>202</ele>
        <time>2025-04-24T15:00:56.000Z</time>
      </trkpt>
      <trkpt lat="44.26999" lon="0.52168">
        <ele>203</ele>
        <time>2025-04-24T15:01:04.000Z</time>
      </trkpt>
      <trkpt lat="44.27009" lon="0.52166">
        <ele>205</ele>
        <time>2025-04-24T15:01:14.000Z</time>
      </trkpt>
      <trkpt lat="44.27019" lon="0.52171">
        <ele>206</ele>
        <time>2025-04-24T15:01:24.000Z</time>
      </trkpt>
      <trkpt lat="44.27027" lon="0.5218">
        <ele>207</ele>
        <time>2025-04-24T15:01:32.000Z</time>
      </trkpt>
      <trkpt lat="44.27034" lon="0.52188">
        <ele>207</ele>
        <time>2025-04-24T15:01:40.000Z</time>
      </trkpt>
      <trkpt lat="44.27042" lon="0.52197">
        <ele>209</ele>
        <time>2025-04-24T15:01:48.000Z</time>
      </trkpt>
      <trkpt lat="44.27051" lon="0.52205">
        <ele>211</ele>
        <time>2025-04-24T15:01:58.000Z</time>
      </trkpt>
      <trkpt lat="44.27059" lon="0.52214">
        <ele>213</ele>
        <time>2025-04-24T15:02:08.000Z</time>
      </trkpt>
      <trkpt lat="44.27065" lon="0.52225">
        <ele>215</ele>
        <time>2025-04-24T15:02:18.000Z</time>
      </trkpt>
      <trkpt lat="44.27071" lon="0.52237">
        <ele>215</ele>
        <time>2025-04-24T15:02:28.000Z</time>
      </trkpt>
      <trkpt lat="44.27077" lon="0.52248">
        <ele>215</ele>
        <time>2025-04-24T15:02:38.000Z</time>
      </trkpt>
      <trkpt lat="44.27084" lon="0.52257">
        <ele>216</ele>
        <time>2025-04-24T15:02:46.000Z</time>
      </trkpt>
      <trkpt lat="44.2709" lon="0.52267">
        <ele>217</ele>
        <time>2025-04-24T15:02:54.000Z</time>
      </trkpt>
      <trkpt lat="44.27097" lon="0.52277">
        <ele>218</ele>
        <time>2025-04-24T15:03:04.000Z</time>
      </trkpt>
      <trkpt lat="44.27104" lon="0.52287">
        <ele>219</ele>
        <time>2025-04-24T15:03:14.000Z</time>
      </trkpt>
      <trkpt lat="44.27112" lon="0.52293">
        <ele>219</ele>
        <time>2025-04-24T15:03:22.000Z</time>
      </trkpt>
      <trkpt lat="44.2712" lon="0.52298">
        <ele>220</ele>
        <time>2025-04-24T15:03:30.000Z</time>
      </trkpt>
      <trkpt lat="44.27129" lon="0.52305">
        <ele>220</ele>
        <time>2025-04-24T15:03:38.000Z</time>
      </trkpt>
      <trkpt lat="44.27137" lon="0.52311">
        <ele>220</ele>
        <time>2025-04-24T15:03:46.000Z</time>
      </trkpt>
      <trkpt lat="44.27146" lon="0.52319">
        <ele>220</ele>
        <time>2025-04-24T15:03:56.000Z</time>
      </trkpt>
      <trkpt lat="44.27153" lon="0.52329">
        <ele>219</ele>
        <time>2025-04-24T15:04:04.000Z</time>
      </trkpt>
      <trkpt lat="44.27161" lon="0.52338">
        <ele>219</ele>
        <time>2025-04-24T15:04:14.000Z</time>
      </trkpt>
      <trkpt lat="44.27167" lon="0.52348">
        <ele>218</ele>
        <time>2025-04-24T15:04:22.000Z</time>
      </trkpt>
      <trkpt lat="44.27169" lon="0.5236">
        <ele>218</ele>
        <time>2025-04-24T15:04:32.000Z</time>
      </trkpt>
      <trkpt lat="44.27168" lon="0.52374">
        <ele>218</ele>
        <time>2025-04-24T15:04:46.000Z</time>
      </trkpt>
      <trkpt lat="44.27162" lon="0.52383">
        <ele>218</ele>
        <time>2025-04-24T15:04:56.000Z</time>
      </trkpt>
      <trkpt lat="44.27154" lon="0.52387">
        <ele>218</ele>
        <time>2025-04-24T15:05:06.000Z</time>
      </trkpt>
      <trkpt lat="44.27145" lon="0.52391">
        <ele>218</ele>
        <time>2025-04-24T15:05:16.000Z</time>
      </trkpt>
      <trkpt lat="44.27135" lon="0.52397">
        <ele>218</ele>
        <time>2025-04-24T15:05:24.000Z</time>
      </trkpt>
      <trkpt lat="44.27128" lon="0.52406">
        <ele>219</ele>
        <time>2025-04-24T15:05:34.000Z</time>
      </trkpt>
      <trkpt lat="44.27121" lon="0.52412">
        <ele>219</ele>
        <time>2025-04-24T15:06:00.000Z</time>
      </trkpt>
      <trkpt lat="44.27116" lon="0.52422">
        <ele>219</ele>
        <time>2025-04-24T15:06:08.000Z</time>
      </trkpt>
      <trkpt lat="44.27113" lon="0.52435">
        <ele>219</ele>
        <time>2025-04-24T15:06:17.000Z</time>
      </trkpt>
      <trkpt lat="44.27111" lon="0.52448">
        <ele>219</ele>
        <time>2025-04-24T15:06:24.000Z</time>
      </trkpt>
      <trkpt lat="44.27106" lon="0.52459">
        <ele>219</ele>
        <time>2025-04-24T15:06:32.000Z</time>
      </trkpt>
      <trkpt lat="44.27101" lon="0.52471">
        <ele>219</ele>
        <time>2025-04-24T15:06:42.000Z</time>
      </trkpt>
      <trkpt lat="44.27094" lon="0.52479">
        <ele>219</ele>
        <time>2025-04-24T15:06:52.000Z</time>
      </trkpt>
      <trkpt lat="44.27098" lon="0.52491">
        <ele>218</ele>
        <time>2025-04-24T15:07:06.000Z</time>
      </trkpt>
      <trkpt lat="44.271" lon="0.52498">
        <ele>169.6</ele>
      </trkpt>
      <trkpt lat="44.27096" lon="0.52506">
        <ele>169.4</ele>
        <time>2025-04-24T15:07:40.000Z</time>
      </trkpt>
    </trkseg>
  </trk>
</gpx>